2016 Cux-Wetter.de -Die Nutzung der Wetterdaten nur mit ausdrcklicher Genehmigung
Wetterdaten: Sonntag, 20.03.2016
Datum Zeit Temp. A. Feuchte A. Luftdruck Regen Wind Richtung Richtung Sonnenschein Solar Taupunkt Windchill Windben
20.03.2016 00:00 5,7 C 94 % 1017,8 hPa 0,0 l/m 14,7 km/h (3 Bft) N 351 0 min 0 W/m 4,8 C 0,1 C 22,5 km/h (4 Bft)
20.03.2016 00:06 5,7 C 94 % 1017,7 hPa 0,0 l/m 10,1 km/h (2 Bft) W-SW 258 0 min 0 W/m 4,8 C 2,8 C 24,1 km/h (4 Bft)
20.03.2016 00:09 5,7 C 94 % 1017,7 hPa 0,0 l/m 10,1 km/h (2 Bft) N-NW 338 0 min 0 W/m 4,8 C 2,8 C 20,9 km/h (4 Bft)
20.03.2016 00:12 5,7 C 94 % 1017,6 hPa 0,0 l/m 13,0 km/h (3 Bft) N-NW 331 0 min 0 W/m 4,8 C 1,0 C 24,1 km/h (4 Bft)
20.03.2016 00:15 5,7 C 94 % 1017,6 hPa 0,0 l/m 12,1 km/h (2 Bft) N-NW 339 0 min 0 W/m 4,8 C 1,5 C 24,1 km/h (4 Bft)
20.03.2016 00:18 5,7 C 94 % 1017,6 hPa 0,0 l/m 12,2 km/h (2 Bft) W 265 0 min 0 W/m 4,8 C 1,4 C 25,7 km/h (4 Bft)
20.03.2016 00:21 5,7 C 93 % 1017,5 hPa 0,0 l/m 10,4 km/h (2 Bft) NW 311 0 min 0 W/m 4,7 C 2,6 C 16,1 km/h (3 Bft)
20.03.2016 00:24 5,8 C 93 % 1017,5 hPa 0,0 l/m 9,8 km/h (2 Bft) N-NW 339 0 min 0 W/m 4,8 C 3,1 C 24,1 km/h (4 Bft)
20.03.2016 00:27 5,8 C 93 % 1017,5 hPa 0,0 l/m 8,6 km/h (2 Bft) NW 317 0 min 0 W/m 4,8 C 4,0 C 16,1 km/h (3 Bft)
20.03.2016 00:30 5,8 C 93 % 1017,6 hPa 0,0 l/m 13,7 km/h (3 Bft) NW 319 0 min 0 W/m 4,8 C 0,7 C 22,5 km/h (4 Bft)
20.03.2016 00:33 5,8 C 93 % 1017,5 hPa 0,0 l/m 14,2 km/h (3 Bft) NW 306 0 min 0 W/m 4,8 C 0,5 C 24,1 km/h (4 Bft)
20.03.2016 00:36 5,7 C 93 % 1017,5 hPa 0,0 l/m 14,4 km/h (3 Bft) NW 323 0 min 0 W/m 4,7 C 0,2 C 22,5 km/h (4 Bft)
20.03.2016 00:39 5,7 C 94 % 1017,5 hPa 0,0 l/m 10,3 km/h (2 Bft) W-NW 289 0 min 0 W/m 4,8 C 2,6 C 22,5 km/h (4 Bft)
20.03.2016 00:42 5,7 C 94 % 1017,5 hPa 0,0 l/m 12,6 km/h (3 Bft) W-NW 286 0 min 0 W/m 4,8 C 1,2 C 25,7 km/h (4 Bft)
20.03.2016 00:45 5,7 C 94 % 1017,4 hPa 0,0 l/m 8,1 km/h (2 Bft) W-NW 292 0 min 0 W/m 4,8 C 4,3 C 25,7 km/h (4 Bft)
20.03.2016 00:48 5,6 C 94 % 1017,4 hPa 0,0 l/m 12,9 km/h (3 Bft) W 281 0 min 0 W/m 4,7 C 0,9 C 22,5 km/h (4 Bft)
20.03.2016 00:51 5,6 C 95 % 1017,4 hPa 0,0 l/m 14,2 km/h (3 Bft) W-NW 287 0 min 0 W/m 4,9 C 0,2 C 25,7 km/h (4 Bft)
20.03.2016 00:54 5,6 C 95 % 1017,3 hPa 0,0 l/m 14,5 km/h (3 Bft) W-NW 292 0 min 0 W/m 4,9 C 0,1 C 27,4 km/h (5 Bft)
20.03.2016 00:57 5,5 C 95 % 1017,4 hPa 0,0 l/m 11,2 km/h (2 Bft) W-SW 248 0 min 0 W/m 4,8 C 1,8 C 22,5 km/h (4 Bft)
20.03.2016 01:00 5,5 C 95 % 1017,4 hPa 0,0 l/m 13,8 km/h (3 Bft) N-NW 341 0 min 0 W/m 4,8 C 0,3 C 24,1 km/h (4 Bft)
20.03.2016 01:03 5,4 C 95 % 1017,4 hPa 0,2 l/m 15,9 km/h (3 Bft) NW 323 0 min 0 W/m 4,7 C -0,9 C 25,7 km/h (4 Bft)
20.03.2016 01:06 5,4 C 95 % 1017,4 hPa 0,0 l/m 13,1 km/h (3 Bft) NW 307 0 min 0 W/m 4,7 C 0,6 C 24,1 km/h (4 Bft)
20.03.2016 01:09 5,4 C 95 % 1017,4 hPa 0,0 l/m 13,6 km/h (3 Bft) W 264 0 min 0 W/m 4,7 C 0,3 C 27,4 km/h (5 Bft)
20.03.2016 01:12 5,4 C 95 % 1017,4 hPa 0,0 l/m 12,5 km/h (2 Bft) W-NW 296 0 min 0 W/m 4,7 C 0,9 C 24,1 km/h (4 Bft)
20.03.2016 01:15 5,5 C 95 % 1017,4 hPa 0,0 l/m 13,8 km/h (3 Bft) W 271 0 min 0 W/m 4,8 C 0,3 C 25,7 km/h (4 Bft)
20.03.2016 01:18 5,5 C 95 % 1017,3 hPa 0,0 l/m 15,2 km/h (3 Bft) NW 318 0 min 0 W/m 4,8 C -0,4 C 25,7 km/h (4 Bft)
20.03.2016 01:21 5,5 C 95 % 1017,3 hPa 0,0 l/m 10,2 km/h (2 Bft) NW 306 0 min 0 W/m 4,8 C 2,5 C 24,1 km/h (4 Bft)
20.03.2016 01:24 5,5 C 94 % 1017,3 hPa 0,0 l/m 8,9 km/h (2 Bft) W 275 0 min 0 W/m 4,6 C 3,4 C 16,1 km/h (3 Bft)
20.03.2016 01:27 5,5 C 94 % 1017,3 hPa 0,0 l/m 11,9 km/h (2 Bft) N-NW 331 0 min 0 W/m 4,6 C 1,4 C 22,5 km/h (4 Bft)
20.03.2016 01:30 5,4 C 94 % 1017,2 hPa 0,0 l/m 6,9 km/h (2 Bft) N 5 0 min 0 W/m 4,5 C 5,0 C 17,7 km/h (3 Bft)
20.03.2016 01:33 5,4 C 94 % 1017,1 hPa 0,0 l/m 9,3 km/h (2 Bft) N-NW 339 0 min 0 W/m 4,5 C 3,0 C 20,9 km/h (4 Bft)
20.03.2016 01:36 5,4 C 94 % 1017,1 hPa 0,0 l/m 9,1 km/h (2 Bft) W 274 0 min 0 W/m 4,5 C 3,2 C 17,7 km/h (3 Bft)
20.03.2016 01:39 5,4 C 94 % 1017,1 hPa 0,0 l/m 9,4 km/h (2 Bft) NW 307 0 min 0 W/m 4,5 C 2,9 C 17,7 km/h (3 Bft)
20.03.2016 01:42 5,3 C 94 % 1017,1 hPa 0,0 l/m 6,2 km/h (2 Bft) NW 320 0 min 0 W/m 4,4 C 5,3 C 12,9 km/h (3 Bft)
20.03.2016 01:45 5,3 C 94 % 1017,1 hPa 0,0 l/m 9,6 km/h (2 Bft) W-SW 250 0 min 0 W/m 4,4 C 2,7 C 17,7 km/h (3 Bft)
20.03.2016 01:48 5,3 C 94 % 1017,1 hPa 0,0 l/m 11,7 km/h (2 Bft) W 277 0 min 0 W/m 4,4 C 1,3 C 20,9 km/h (4 Bft)
20.03.2016 01:51 5,3 C 94 % 1017,1 hPa 0,0 l/m 14,3 km/h (3 Bft) NW 322 0 min 0 W/m 4,4 C -0,2 C 22,5 km/h (4 Bft)
20.03.2016 01:54 5,3 C 94 % 1017,1 hPa 0,0 l/m 8,3 km/h (2 Bft) W-NW 292 0 min 0 W/m 4,4 C 3,7 C 16,1 km/h (3 Bft)
20.03.2016 01:57 5,3 C 93 % 1017,0 hPa 0,0 l/m 9,5 km/h (2 Bft) W-SW 253 0 min 0 W/m 4,3 C 2,8 C 20,9 km/h (4 Bft)
20.03.2016 02:00 5,3 C 93 % 1017,0 hPa 0,0 l/m 7,3 km/h (2 Bft) SW 221 0 min 0 W/m 4,3 C 4,5 C 19,3 km/h (3 Bft)
20.03.2016 02:03 5,2 C 92 % 1016,9 hPa 0,0 l/m 12,8 km/h (3 Bft) NW 322 0 min 0 W/m 4,0 C 0,5 C 22,5 km/h (4 Bft)
20.03.2016 02:06 5,3 C 92 % 1016,9 hPa 0,0 l/m 12,3 km/h (2 Bft) N-NW 342 0 min 0 W/m 4,1 C 0,9 C 24,1 km/h (4 Bft)
20.03.2016 02:09 5,3 C 92 % 1016,8 hPa 0,0 l/m 10,1 km/h (2 Bft) W-NW 288 0 min 0 W/m 4,1 C 2,3 C 19,3 km/h (3 Bft)
20.03.2016 02:12 5,3 C 92 % 1016,8 hPa 0,0 l/m 9,3 km/h (2 Bft) W 271 0 min 0 W/m 4,1 C 2,9 C 19,3 km/h (3 Bft)
20.03.2016 02:15 5,2 C 92 % 1016,8 hPa 0,0 l/m 10,7 km/h (2 Bft) W 260 0 min 0 W/m 4,0 C 1,8 C 17,7 km/h (3 Bft)
20.03.2016 02:18 5,2 C 92 % 1016,8 hPa 0,0 l/m 8,6 km/h (2 Bft) W 274 0 min 0 W/m 4,0 C 3,3 C 16,1 km/h (3 Bft)
20.03.2016 02:21 5,2 C 92 % 1016,8 hPa 0,0 l/m 13,0 km/h (3 Bft) W-NW 296 0 min 0 W/m 4,0 C 0,4 C 22,5 km/h (4 Bft)
20.03.2016 02:24 5,2 C 92 % 1016,8 hPa 0,0 l/m 10,2 km/h (2 Bft) W-NW 302 0 min 0 W/m 4,0 C 2,2 C 24,1 km/h (4 Bft)
20.03.2016 02:27 5,2 C 92 % 1016,8 hPa 0,0 l/m 10,8 km/h (2 Bft) W 271 0 min 0 W/m 4,0 C 1,7 C 19,3 km/h (3 Bft)
20.03.2016 02:30 5,2 C 92 % 1016,6 hPa 0,0 l/m 11,3 km/h (2 Bft) W-NW 288 0 min 0 W/m 4,0 C 1,4 C 20,9 km/h (4 Bft)
20.03.2016 02:33 5,2 C 92 % 1016,6 hPa 0,0 l/m 13,0 km/h (3 Bft) W-NW 282 0 min 0 W/m 4,0 C 0,4 C 22,5 km/h (4 Bft)
20.03.2016 02:36 5,2 C 92 % 1016,6 hPa 0,0 l/m 11,3 km/h (2 Bft) SW 235 0 min 0 W/m 4,0 C 1,4 C 22,5 km/h (4 Bft)
20.03.2016 02:39 5,2 C 92 % 1016,6 hPa 0,0 l/m 11,4 km/h (2 Bft) W 267 0 min 0 W/m 4,0 C 1,4 C 20,9 km/h (4 Bft)
20.03.2016 02:42 5,2 C 92 % 1016,6 hPa 0,0 l/m 11,1 km/h (2 Bft) W 279 0 min 0 W/m 4,0 C 1,6 C 19,3 km/h (3 Bft)
20.03.2016 02:45 5,2 C 92 % 1016,6 hPa 0,0 l/m 10,6 km/h (2 Bft) W-NW 292 0 min 0 W/m 4,0 C 1,9 C 17,7 km/h (3 Bft)
20.03.2016 02:48 5,2 C 92 % 1016,5 hPa 0,0 l/m 10,1 km/h (2 Bft) W-SW 250 0 min 0 W/m 4,0 C 2,2 C 17,7 km/h (3 Bft)
20.03.2016 02:51 5,2 C 92 % 1016,5 hPa 0,0 l/m 12,4 km/h (2 Bft) W-SW 254 0 min 0 W/m 4,0 C 0,7 C 20,9 km/h (4 Bft)
20.03.2016 02:54 5,2 C 92 % 1016,5 hPa 0,0 l/m 14,8 km/h (3 Bft) W-SW 255 0 min 0 W/m 4,0 C -0,6 C 25,7 km/h (4 Bft)
20.03.2016 02:57 5,3 C 92 % 1016,5 hPa 0,0 l/m 13,7 km/h (3 Bft) W-SW 249 0 min 0 W/m 4,1 C 0,1 C 22,5 km/h (4 Bft)
20.03.2016 03:00 5,3 C 92 % 1016,5 hPa 0,0 l/m 13,0 km/h (3 Bft) W 269 0 min 0 W/m 4,1 C 0,5 C 24,1 km/h (4 Bft)
20.03.2016 03:03 5,4 C 92 % 1016,4 hPa 0,0 l/m 9,3 km/h (2 Bft) W-SW 244 0 min 0 W/m 4,2 C 3,0 C 19,3 km/h (3 Bft)
20.03.2016 03:06 5,5 C 92 % 1016,4 hPa 0,0 l/m 11,0 km/h (2 Bft) W-SW 241 0 min 0 W/m 4,3 C 2,0 C 24,1 km/h (4 Bft)
20.03.2016 03:09 5,5 C 92 % 1016,3 hPa 0,0 l/m 8,3 km/h (2 Bft) W-NW 302 0 min 0 W/m 4,3 C 3,9 C 19,3 km/h (3 Bft)
20.03.2016 03:12 5,6 C 92 % 1016,4 hPa 0,0 l/m 11,7 km/h (2 Bft) W-NW 284 0 min 0 W/m 4,4 C 1,6 C 24,1 km/h (4 Bft)
20.03.2016 03:15 5,6 C 92 % 1016,3 hPa 0,0 l/m 13,9 km/h (3 Bft) W 277 0 min 0 W/m 4,4 C 0,4 C 24,1 km/h (4 Bft)
20.03.2016 03:18 5,6 C 91 % 1016,2 hPa 0,0 l/m 9,4 km/h (2 Bft) NW 306 0 min 0 W/m 4,2 C 3,2 C 22,5 km/h (4 Bft)
20.03.2016 03:21 5,6 C 91 % 1016,1 hPa 0,0 l/m 11,0 km/h (2 Bft) W 267 0 min 0 W/m 4,2 C 2,1 C 20,9 km/h (4 Bft)
20.03.2016 03:24 5,6 C 90 % 1016,1 hPa 0,0 l/m 11,2 km/h (2 Bft) W-NW 294 0 min 0 W/m 4,1 C 1,9 C 24,1 km/h (4 Bft)
20.03.2016 03:27 5,6 C 90 % 1016,0 hPa 0,0 l/m 8,6 km/h (2 Bft) W-SW 247 0 min 0 W/m 4,1 C 3,8 C 14,5 km/h (3 Bft)
20.03.2016 03:30 5,6 C 90 % 1016,1 hPa 0,0 l/m 8,6 km/h (2 Bft) W-SW 257 0 min 0 W/m 4,1 C 3,8 C 14,5 km/h (3 Bft)
20.03.2016 03:33 5,5 C 90 % 1016,1 hPa 0,0 l/m 8,6 km/h (2 Bft) W 270 0 min 0 W/m 4,0 C 3,7 C 29,0 km/h (5 Bft)
20.03.2016 03:36 5,4 C 90 % 1016,1 hPa 0,0 l/m 10,5 km/h (2 Bft) W 262 0 min 0 W/m 3,9 C 2,2 C 24,1 km/h (4 Bft)
20.03.2016 03:39 5,4 C 90 % 1016,1 hPa 0,0 l/m 10,6 km/h (2 Bft) W-NW 283 0 min 0 W/m 3,9 C 2,1 C 20,9 km/h (4 Bft)
20.03.2016 03:42 5,4 C 89 % 1016,1 hPa 0,0 l/m 9,9 km/h (2 Bft) W-NW 288 0 min 0 W/m 3,7 C 2,6 C 20,9 km/h (4 Bft)
20.03.2016 03:45 5,4 C 89 % 1016,1 hPa 0,0 l/m 13,3 km/h (3 Bft) W 271 0 min 0 W/m 3,7 C 0,5 C 20,9 km/h (4 Bft)
20.03.2016 03:48 5,5 C 89 % 1016,0 hPa 0,0 l/m 10,5 km/h (2 Bft) W-NW 284 0 min 0 W/m 3,8 C 2,3 C 19,3 km/h (3 Bft)
20.03.2016 03:51 5,6 C 89 % 1015,9 hPa 0,0 l/m 11,2 km/h (2 Bft) W-NW 282 0 min 0 W/m 3,9 C 1,9 C 24,1 km/h (4 Bft)
20.03.2016 03:54 5,6 C 89 % 1016,0 hPa 0,0 l/m 12,7 km/h (3 Bft) W 269 0 min 0 W/m 3,9 C 1,0 C 22,5 km/h (4 Bft)
20.03.2016 03:57 5,6 C 89 % 1016,0 hPa 0,0 l/m 9,5 km/h (2 Bft) W-NW 300 0 min 0 W/m 3,9 C 3,1 C 19,3 km/h (3 Bft)
20.03.2016 04:00 5,7 C 89 % 1015,9 hPa 0,0 l/m 11,5 km/h (2 Bft) W 276 0 min 0 W/m 4,0 C 1,9 C 17,7 km/h (3 Bft)
20.03.2016 04:03 5,7 C 89 % 1015,8 hPa 0,0 l/m 12,4 km/h (2 Bft) W 271 0 min 0 W/m 4,0 C 1,3 C 20,9 km/h (4 Bft)
20.03.2016 04:06 5,7 C 89 % 1015,8 hPa 0,0 l/m 12,0 km/h (2 Bft) W 269 0 min 0 W/m 4,0 C 1,6 C 22,5 km/h (4 Bft)
20.03.2016 04:09 5,7 C 89 % 1015,8 hPa 0,0 l/m 12,2 km/h (2 Bft) W-SW 255 0 min 0 W/m 4,0 C 1,4 C 22,5 km/h (4 Bft)
20.03.2016 04:12 5,7 C 89 % 1015,9 hPa 0,0 l/m 11,5 km/h (2 Bft) W-NW 299 0 min 0 W/m 4,0 C 1,9 C 24,1 km/h (4 Bft)
20.03.2016 04:15 5,7 C 89 % 1015,9 hPa 0,0 l/m 13,9 km/h (3 Bft) W-NW 292 0 min 0 W/m 4,0 C 0,5 C 24,1 km/h (4 Bft)
20.03.2016 04:18 5,8 C 89 % 1015,9 hPa 0,0 l/m 13,6 km/h (3 Bft) W 265 0 min 0 W/m 4,1 C 0,8 C 22,5 km/h (4 Bft)
20.03.2016 04:21 5,8 C 89 % 1015,8 hPa 0,0 l/m 12,7 km/h (3 Bft) W 269 0 min 0 W/m 4,1 C 1,3 C 19,3 km/h (3 Bft)
20.03.2016 04:24 5,8 C 89 % 1015,8 hPa 0,0 l/m 10,3 km/h (2 Bft) W-NW 298 0 min 0 W/m 4,1 C 2,8 C 19,3 km/h (3 Bft)
20.03.2016 04:27 5,8 C 89 % 1015,9 hPa 0,0 l/m 7,8 km/h (2 Bft) W 265 0 min 0 W/m 4,1 C 4,6 C 17,7 km/h (3 Bft)
20.03.2016 04:30 5,8 C 89 % 1015,9 hPa 0,0 l/m 7,7 km/h (2 Bft) W-SW 252 0 min 0 W/m 4,1 C 4,7 C 20,9 km/h (4 Bft)
20.03.2016 04:33 5,8 C 89 % 1015,8 hPa 0,0 l/m 6,8 km/h (2 Bft) W-NW 291 0 min 0 W/m 4,1 C 5,5 C 17,7 km/h (3 Bft)
20.03.2016 04:36 5,9 C 89 % 1015,8 hPa 0,0 l/m 8,0 km/h (2 Bft) W-NW 296 0 min 0 W/m 4,2 C 4,5 C 19,3 km/h (3 Bft)
20.03.2016 04:39 5,9 C 89 % 1015,9 hPa 0,0 l/m 12,5 km/h (2 Bft) SW 232 0 min 0 W/m 4,2 C 1,5 C 24,1 km/h (4 Bft)
20.03.2016 04:42 5,9 C 89 % 1015,8 hPa 0,0 l/m 9,3 km/h (2 Bft) W-SW 244 0 min 0 W/m 4,2 C 3,6 C 17,7 km/h (3 Bft)
20.03.2016 04:45 5,9 C 89 % 1015,8 hPa 0,0 l/m 11,5 km/h (2 Bft) NW 325 0 min 0 W/m 4,2 C 2,1 C 24,1 km/h (4 Bft)
20.03.2016 04:48 5,9 C 88 % 1015,7 hPa 0,0 l/m 8,7 km/h (2 Bft) N-NW 346 0 min 0 W/m 4,1 C 4,0 C 27,4 km/h (5 Bft)
20.03.2016 04:51 6,0 C 88 % 1015,7 hPa 0,0 l/m 8,7 km/h (2 Bft) W-NW 290 0 min 0 W/m 4,2 C 4,1 C 17,7 km/h (3 Bft)
20.03.2016 04:54 6,0 C 88 % 1015,6 hPa 0,0 l/m 8,3 km/h (2 Bft) W 275 0 min 0 W/m 4,2 C 4,4 C 22,5 km/h (4 Bft)
20.03.2016 04:57 6,0 C 89 % 1015,6 hPa 0,0 l/m 13,3 km/h (3 Bft) W 260 0 min 0 W/m 4,3 C 1,2 C 25,7 km/h (4 Bft)
20.03.2016 05:00 6,0 C 89 % 1015,6 hPa 0,0 l/m 11,6 km/h (2 Bft) NW 307 0 min 0 W/m 4,3 C 2,1 C 22,5 km/h (4 Bft)
20.03.2016 05:03 6,0 C 89 % 1015,5 hPa 0,0 l/m 10,4 km/h (2 Bft) W 279 0 min 0 W/m 4,3 C 2,9 C 27,4 km/h (5 Bft)
20.03.2016 05:06 6,0 C 89 % 1015,4 hPa 0,0 l/m 10,4 km/h (2 Bft) W 269 0 min 0 W/m 4,3 C 2,9 C 20,9 km/h (4 Bft)
20.03.2016 05:09 6,0 C 89 % 1015,5 hPa 0,0 l/m 11,5 km/h (2 Bft) W-SW 256 0 min 0 W/m 4,3 C 2,2 C 19,3 km/h (3 Bft)
20.03.2016 05:12 6,0 C 89 % 1015,5 hPa 0,0 l/m 13,5 km/h (3 Bft) NW 323 0 min 0 W/m 4,3 C 1,1 C 24,1 km/h (4 Bft)
20.03.2016 05:15 5,9 C 89 % 1015,3 hPa 0,0 l/m 8,9 km/h (2 Bft) W 264 0 min 0 W/m 4,2 C 3,9 C 20,9 km/h (4 Bft)
20.03.2016 05:18 5,9 C 89 % 1015,3 hPa 0,0 l/m 14,2 km/h (3 Bft) W-SW 258 0 min 0 W/m 4,2 C 0,6 C 24,1 km/h (4 Bft)
20.03.2016 05:21 5,8 C 89 % 1015,3 hPa 0,0 l/m 10,5 km/h (2 Bft) W-NW 284 0 min 0 W/m 4,1 C 2,6 C 24,1 km/h (4 Bft)
20.03.2016 05:24 5,8 C 89 % 1015,2 hPa 0,0 l/m 12,5 km/h (2 Bft) W-NW 293 0 min 0 W/m 4,1 C 1,4 C 20,9 km/h (4 Bft)
20.03.2016 05:27 5,7 C 90 % 1015,3 hPa 0,0 l/m 12,2 km/h (2 Bft) NW 323 0 min 0 W/m 4,2 C 1,4 C 22,5 km/h (4 Bft)
20.03.2016 05:30 5,7 C 90 % 1015,2 hPa 0,0 l/m 12,2 km/h (2 Bft) NW 312 0 min 0 W/m 4,2 C 1,4 C 22,5 km/h (4 Bft)
20.03.2016 05:33 5,7 C 90 % 1015,2 hPa 0,0 l/m 11,3 km/h (2 Bft) W 275 0 min 0 W/m 4,2 C 2,0 C 20,9 km/h (4 Bft)
20.03.2016 05:36 5,6 C 90 % 1015,2 hPa 0,0 l/m 12,8 km/h (3 Bft) W-NW 303 0 min 0 W/m 4,1 C 1,0 C 24,1 km/h (4 Bft)
20.03.2016 05:39 5,6 C 90 % 1015,3 hPa 0,0 l/m 11,6 km/h (2 Bft) NW 315 0 min 0 W/m 4,1 C 1,7 C 27,4 km/h (5 Bft)
20.03.2016 05:42 5,6 C 91 % 1015,3 hPa 0,0 l/m 10,0 km/h (2 Bft) W-NW 285 0 min 0 W/m 4,2 C 2,7 C 17,7 km/h (3 Bft)
20.03.2016 05:45 5,7 C 91 % 1015,3 hPa 0,0 l/m 11,4 km/h (2 Bft) NW 308 0 min 0 W/m 4,3 C 1,9 C 19,3 km/h (3 Bft)
20.03.2016 05:48 5,7 C 91 % 1015,3 hPa 0,0 l/m 12,2 km/h (2 Bft) W 273 0 min 0 W/m 4,3 C 1,4 C 24,1 km/h (4 Bft)
20.03.2016 05:51 5,7 C 91 % 1015,1 hPa 0,0 l/m 15,7 km/h (3 Bft) W 277 0 min 0 W/m 4,3 C -0,4 C 25,7 km/h (4 Bft)
20.03.2016 05:54 5,7 C 91 % 1015,2 hPa 0,0 l/m 12,3 km/h (2 Bft) W-SW 254 0 min 0 W/m 4,3 C 1,4 C 24,1 km/h (4 Bft)
20.03.2016 05:57 5,7 C 91 % 1015,2 hPa 0,0 l/m 12,4 km/h (2 Bft) W-NW 300 0 min 0 W/m 4,3 C 1,3 C 24,1 km/h (4 Bft)
20.03.2016 06:00 5,6 C 91 % 1015,2 hPa 0,0 l/m 14,4 km/h (3 Bft) W-SW 250 0 min 0 W/m 4,2 C 0,1 C 20,9 km/h (4 Bft)
20.03.2016 06:03 5,6 C 91 % 1015,1 hPa 0,0 l/m 12,1 km/h (2 Bft) NW 309 0 min 0 W/m 4,2 C 1,4 C 24,1 km/h (4 Bft)
20.03.2016 06:09 5,6 C 91 % 1015,2 hPa 0,0 l/m 16,7 km/h (3 Bft) W-SW 253 0 min 0 W/m 4,2 C -1,0 C 24,1 km/h (4 Bft)
20.03.2016 06:12 5,6 C 91 % 1015,2 hPa 0,0 l/m 11,5 km/h (2 Bft) NW 306 0 min 0 W/m 4,2 C 1,8 C 22,5 km/h (4 Bft)
20.03.2016 06:15 5,6 C 91 % 1015,3 hPa 0,0 l/m 12,4 km/h (2 Bft) W 271 0 min 0 W/m 4,2 C 1,2 C 29,0 km/h (5 Bft)
20.03.2016 06:18 5,7 C 91 % 1015,2 hPa 0,0 l/m 15,8 km/h (3 Bft) W 263 0 min 0 W/m 4,3 C -0,5 C 27,4 km/h (5 Bft)
20.03.2016 06:21 5,7 C 91 % 1015,2 hPa 0,0 l/m 14,2 km/h (3 Bft) W 279 0 min 0 W/m 4,3 C 0,3 C 27,4 km/h (5 Bft)
20.03.2016 06:24 5,8 C 91 % 1015,1 hPa 0,0 l/m 12,7 km/h (3 Bft) W-NW 288 0 min 0 W/m 4,4 C 1,3 C 22,5 km/h (4 Bft)
20.03.2016 06:27 5,8 C 91 % 1015,2 hPa 0,0 l/m 14,9 km/h (3 Bft) W-NW 286 0 min 0 W/m 4,4 C 0,1 C 24,1 km/h (4 Bft)
20.03.2016 06:30 5,8 C 91 % 1015,1 hPa 0,0 l/m 13,4 km/h (3 Bft) NW 308 0 min 0 W/m 4,4 C 0,9 C 22,5 km/h (4 Bft)
20.03.2016 06:33 5,8 C 92 % 1015,1 hPa 0,0 l/m 16,6 km/h (3 Bft) W-SW 253 0 min 0 W/m 4,6 C -0,7 C 27,4 km/h (5 Bft)
20.03.2016 06:36 5,9 C 92 % 1015,1 hPa 0,0 l/m 14,1 km/h (3 Bft) SW 236 0 min 0 W/m 4,7 C 0,6 C 27,4 km/h (5 Bft)
20.03.2016 06:39 5,9 C 92 % 1015,1 hPa 0,0 l/m 13,9 km/h (3 Bft) W 271 0 min 0 W/m 4,7 C 0,7 C 24,1 km/h (4 Bft)
20.03.2016 06:42 5,9 C 92 % 1015,1 hPa 0,0 l/m 14,8 km/h (3 Bft) W 262 0 min 0 W/m 4,7 C 0,3 C 24,1 km/h (4 Bft)
20.03.2016 06:45 5,9 C 91 % 1015,1 hPa 0,0 l/m 16,6 km/h (3 Bft) W 278 0 min 0 W/m 4,5 C -0,6 C 24,1 km/h (4 Bft)
20.03.2016 06:48 6,0 C 91 % 1015,1 hPa 0,0 l/m 14,3 km/h (3 Bft) N 355 0 min 5 W/m 4,6 C 0,6 C 32,2 km/h (5 Bft)
20.03.2016 06:51 6,0 C 91 % 1015,1 hPa 0,0 l/m 16,6 km/h (3 Bft) W-NW 294 0 min 7 W/m 4,6 C -0,5 C 25,7 km/h (4 Bft)
20.03.2016 06:54 6,1 C 91 % 1015,1 hPa 0,0 l/m 18,3 km/h (3 Bft) W-SW 242 0 min 7 W/m 4,7 C -1,1 C 29,0 km/h (5 Bft)
20.03.2016 06:57 6,1 C 91 % 1015,2 hPa 0,0 l/m 15,5 km/h (3 Bft) W 265 0 min 9 W/m 4,7 C 0,2 C 33,8 km/h (5 Bft)
20.03.2016 07:00 6,1 C 91 % 1015,1 hPa 0,0 l/m 12,6 km/h (3 Bft) NW 306 0 min 11 W/m 4,7 C 1,7 C 25,7 km/h (4 Bft)
20.03.2016 07:03 6,1 C 92 % 1015,1 hPa 0,0 l/m 9,8 km/h (2 Bft) W-NW 294 0 min 16 W/m 4,9 C 3,4 C 20,9 km/h (4 Bft)
20.03.2016 07:06 6,1 C 92 % 1015,1 hPa 0,0 l/m 11,7 km/h (2 Bft) W 269 0 min 14 W/m 4,9 C 2,2 C 27,4 km/h (5 Bft)
20.03.2016 07:09 6,1 C 92 % 1015,2 hPa 0,0 l/m 13,5 km/h (3 Bft) W-NW 294 0 min 12 W/m 4,9 C 1,2 C 24,1 km/h (4 Bft)
20.03.2016 07:12 6,2 C 92 % 1015,2 hPa 0,0 l/m 13,1 km/h (3 Bft) W 279 0 min 12 W/m 5,0 C 1,5 C 24,1 km/h (4 Bft)
20.03.2016 07:15 6,2 C 92 % 1015,2 hPa 0,0 l/m 14,3 km/h (3 Bft) W-NW 289 0 min 16 W/m 5,0 C 0,9 C 29,0 km/h (5 Bft)
20.03.2016 07:18 6,2 C 92 % 1015,1 hPa 0,0 l/m 14,9 km/h (3 Bft) W-NW 287 0 min 16 W/m 5,0 C 0,6 C 27,4 km/h (5 Bft)
20.03.2016 07:21 6,2 C 92 % 1015,1 hPa 0,0 l/m 14,0 km/h (3 Bft) W 264 0 min 18 W/m 5,0 C 1,0 C 24,1 km/h (4 Bft)
20.03.2016 07:24 6,3 C 92 % 1015,1 hPa 0,0 l/m 14,8 km/h (3 Bft) NW 306 0 min 16 W/m 5,1 C 0,7 C 25,7 km/h (4 Bft)
20.03.2016 07:27 6,3 C 92 % 1015,0 hPa 0,0 l/m 11,0 km/h (2 Bft) W-NW 298 0 min 19 W/m 5,1 C 2,9 C 20,9 km/h (4 Bft)
20.03.2016 07:30 6,3 C 92 % 1015,1 hPa 0,0 l/m 11,9 km/h (2 Bft) NW 309 0 min 19 W/m 5,1 C 2,3 C 19,3 km/h (3 Bft)
20.03.2016 07:33 6,3 C 92 % 1015,2 hPa 0,0 l/m 11,5 km/h (2 Bft) W-SW 244 0 min 16 W/m 5,1 C 2,6 C 22,5 km/h (4 Bft)
20.03.2016 07:36 6,3 C 92 % 1015,2 hPa 0,0 l/m 9,9 km/h (2 Bft) W 276 0 min 19 W/m 5,1 C 3,6 C 20,9 km/h (4 Bft)
20.03.2016 07:39 6,3 C 92 % 1015,2 hPa 0,0 l/m 14,3 km/h (3 Bft) W 261 0 min 25 W/m 5,1 C 1,0 C 22,5 km/h (4 Bft)
20.03.2016 07:42 6,4 C 92 % 1015,2 hPa 0,0 l/m 15,1 km/h (3 Bft) W-SW 253 0 min 26 W/m 5,2 C 0,7 C 24,1 km/h (4 Bft)
20.03.2016 07:45 6,4 C 92 % 1015,2 hPa 0,0 l/m 12,4 km/h (2 Bft) W 265 0 min 26 W/m 5,2 C 2,1 C 25,7 km/h (4 Bft)
20.03.2016 07:48 6,4 C 92 % 1015,2 hPa 0,0 l/m 13,9 km/h (3 Bft) W 270 0 min 23 W/m 5,2 C 1,3 C 22,5 km/h (4 Bft)
20.03.2016 07:51 6,5 C 92 % 1015,1 hPa 0,0 l/m 16,9 km/h (3 Bft) W 260 0 min 25 W/m 5,3 C 0,0 C 25,7 km/h (4 Bft)
20.03.2016 07:54 6,5 C 92 % 1015,2 hPa 0,0 l/m 15,6 km/h (3 Bft) W 272 0 min 25 W/m 5,3 C 0,6 C 29,0 km/h (5 Bft)
20.03.2016 07:57 6,5 C 92 % 1015,1 hPa 0,0 l/m 17,5 km/h (3 Bft) W-SW 254 0 min 23 W/m 5,3 C -0,2 C 27,4 km/h (5 Bft)
20.03.2016 08:00 6,5 C 92 % 1015,1 hPa 0,0 l/m 17,3 km/h (3 Bft) N-NW 346 0 min 25 W/m 5,3 C -0,2 C 29,0 km/h (5 Bft)
20.03.2016 08:03 6,6 C 92 % 1015,1 hPa 0,0 l/m 17,8 km/h (3 Bft) W-NW 302 0 min 30 W/m 5,4 C -0,2 C 30,6 km/h (5 Bft)
20.03.2016 08:06 6,6 C 92 % 1015,1 hPa 0,0 l/m 15,8 km/h (3 Bft) W 259 0 min 28 W/m 5,4 C 0,6 C 30,6 km/h (5 Bft)
20.03.2016 08:09 6,6 C 92 % 1015,1 hPa 0,0 l/m 15,0 km/h (3 Bft) W 276 0 min 28 W/m 5,4 C 1,0 C 29,0 km/h (5 Bft)
20.03.2016 08:12 6,6 C 93 % 1015,1 hPa 0,0 l/m 14,6 km/h (3 Bft) W-NW 288 0 min 21 W/m 5,6 C 1,2 C 33,8 km/h (5 Bft)
20.03.2016 08:15 6,5 C 93 % 1015,0 hPa 0,0 l/m 15,1 km/h (3 Bft) W-SW 248 0 min 25 W/m 5,5 C 0,8 C 27,4 km/h (5 Bft)
20.03.2016 08:18 6,5 C 93 % 1015,0 hPa 0,0 l/m 19,4 km/h (3 Bft) W-SW 257 0 min 33 W/m 5,5 C -1,0 C 30,6 km/h (5 Bft)
20.03.2016 08:21 6,5 C 94 % 1015,1 hPa 0,0 l/m 18,0 km/h (3 Bft) W-SW 240 0 min 46 W/m 5,6 C -0,4 C 33,8 km/h (5 Bft)
20.03.2016 08:24 6,5 C 94 % 1015,0 hPa 0,0 l/m 18,0 km/h (3 Bft) W-NW 302 0 min 47 W/m 5,6 C -0,4 C 25,7 km/h (4 Bft)
20.03.2016 08:27 6,5 C 94 % 1015,1 hPa 0,0 l/m 17,3 km/h (3 Bft) W 279 0 min 44 W/m 5,6 C -0,2 C 25,7 km/h (4 Bft)
20.03.2016 08:30 6,6 C 94 % 1015,1 hPa 0,0 l/m 15,7 km/h (3 Bft) W 263 0 min 91 W/m 5,7 C 0,7 C 29,0 km/h (5 Bft)
20.03.2016 08:33 6,7 C 94 % 1015,0 hPa 0,0 l/m 15,1 km/h (3 Bft) W-SW 257 0 min 70 W/m 5,8 C 1,1 C 25,7 km/h (4 Bft)
20.03.2016 08:36 6,7 C 94 % 1014,9 hPa 0,0 l/m 14,4 km/h (3 Bft) W-NW 300 0 min 67 W/m 5,8 C 1,4 C 22,5 km/h (4 Bft)
20.03.2016 08:39 6,8 C 94 % 1015,0 hPa 0,0 l/m 14,9 km/h (3 Bft) W 277 0 min 63 W/m 5,9 C 1,3 C 29,0 km/h (5 Bft)
20.03.2016 08:42 6,8 C 94 % 1015,0 hPa 0,0 l/m 15,1 km/h (3 Bft) W 263 0 min 60 W/m 5,9 C 1,2 C 25,7 km/h (4 Bft)
20.03.2016 08:45 6,9 C 93 % 1015,0 hPa 0,0 l/m 17,8 km/h (3 Bft) W-SW 250 0 min 53 W/m 5,8 C 0,1 C 27,4 km/h (5 Bft)
20.03.2016 08:48 6,9 C 93 % 1015,1 hPa 0,0 l/m 16,8 km/h (3 Bft) W-NW 293 0 min 74 W/m 5,8 C 0,6 C 30,6 km/h (5 Bft)
20.03.2016 08:51 6,9 C 93 % 1015,0 hPa 0,0 l/m 14,8 km/h (3 Bft) SW 236 0 min 56 W/m 5,8 C 1,5 C 25,7 km/h (4 Bft)
20.03.2016 08:54 7,0 C 93 % 1015,1 hPa 0,0 l/m 12,2 km/h (2 Bft) W-SW 252 0 min 37 W/m 5,9 C 2,9 C 25,7 km/h (4 Bft)
20.03.2016 08:57 7,0 C 93 % 1015,1 hPa 0,0 l/m 14,8 km/h (3 Bft) W-SW 242 0 min 53 W/m 5,9 C 1,6 C 24,1 km/h (4 Bft)
20.03.2016 09:00 7,0 C 93 % 1015,0 hPa 0,0 l/m 17,0 km/h (3 Bft) W 275 0 min 54 W/m 5,9 C 0,6 C 27,4 km/h (5 Bft)
20.03.2016 09:03 7,0 C 93 % 1015,0 hPa 0,0 l/m 16,8 km/h (3 Bft) W 261 0 min 53 W/m 5,9 C 0,7 C 27,4 km/h (5 Bft)
20.03.2016 09:06 6,9 C 93 % 1015,1 hPa 0,0 l/m 16,4 km/h (3 Bft) W-NW 283 0 min 25 W/m 5,8 C 0,7 C 25,7 km/h (4 Bft)
20.03.2016 09:09 6,9 C 93 % 1015,1 hPa 0,0 l/m 12,4 km/h (2 Bft) W-SW 254 0 min 33 W/m 5,8 C 2,7 C 24,1 km/h (4 Bft)
20.03.2016 09:12 6,9 C 93 % 1015,1 hPa 0,0 l/m 12,8 km/h (3 Bft) W-SW 257 0 min 62 W/m 5,8 C 2,5 C 24,1 km/h (4 Bft)
20.03.2016 09:15 6,9 C 94 % 1015,0 hPa 0,0 l/m 15,3 km/h (3 Bft) W 266 0 min 63 W/m 6,0 C 1,2 C 32,2 km/h (5 Bft)
20.03.2016 09:18 7,0 C 94 % 1015,0 hPa 0,0 l/m 15,4 km/h (3 Bft) W-SW 239 0 min 58 W/m 6,1 C 1,3 C 27,4 km/h (5 Bft)
20.03.2016 09:21 7,0 C 94 % 1015,1 hPa 0,0 l/m 12,5 km/h (2 Bft) W 275 0 min 56 W/m 6,1 C 2,8 C 20,9 km/h (4 Bft)
20.03.2016 09:24 7,1 C 94 % 1015,0 hPa 0,0 l/m 16,5 km/h (3 Bft) W 265 0 min 49 W/m 6,2 C 0,9 C 24,1 km/h (4 Bft)
20.03.2016 09:27 7,1 C 94 % 1015,0 hPa 0,0 l/m 13,7 km/h (3 Bft) W 272 0 min 72 W/m 6,2 C 2,3 C 25,7 km/h (4 Bft)
20.03.2016 09:30 7,1 C 94 % 1015,0 hPa 0,0 l/m 15,7 km/h (3 Bft) W 275 0 min 79 W/m 6,2 C 1,3 C 29,0 km/h (5 Bft)
20.03.2016 09:33 7,2 C 93 % 1015,0 hPa 0,0 l/m 17,0 km/h (3 Bft) NW 319 0 min 93 W/m 6,1 C 0,8 C 30,6 km/h (5 Bft)
20.03.2016 09:36 7,2 C 93 % 1015,0 hPa 0,0 l/m 17,3 km/h (3 Bft) W 279 0 min 88 W/m 6,1 C 0,7 C 29,0 km/h (5 Bft)
20.03.2016 09:39 7,3 C 94 % 1015,1 hPa 0,0 l/m 20,8 km/h (4 Bft) NW 319 0 min 120 W/m 6,4 C -0,5 C 32,2 km/h (5 Bft)
20.03.2016 09:42 7,3 C 93 % 1015,0 hPa 0,0 l/m 15,8 km/h (3 Bft) W 264 0 min 118 W/m 6,2 C 1,5 C 29,0 km/h (5 Bft)
20.03.2016 09:45 7,4 C 93 % 1015,0 hPa 0,0 l/m 17,8 km/h (3 Bft) W-NW 288 0 min 171 W/m 6,3 C 0,8 C 32,2 km/h (5 Bft)
20.03.2016 09:48 7,5 C 93 % 1015,0 hPa 0,0 l/m 18,0 km/h (3 Bft) W-NW 284 0 min 149 W/m 6,4 C 0,8 C 33,8 km/h (5 Bft)
20.03.2016 09:51 7,6 C 92 % 1015,0 hPa 0,0 l/m 19,4 km/h (3 Bft) W 264 0 min 100 W/m 6,4 C 0,4 C 32,2 km/h (5 Bft)
20.03.2016 09:54 7,6 C 92 % 1015,0 hPa 0,0 l/m 20,1 km/h (4 Bft) W 275 0 min 183 W/m 6,4 C 0,2 C 38,6 km/h (6 Bft)
20.03.2016 09:57 7,6 C 92 % 1015,0 hPa 0,0 l/m 19,2 km/h (3 Bft) W 268 0 min 149 W/m 6,4 C 0,5 C 30,6 km/h (5 Bft)
20.03.2016 10:00 7,7 C 92 % 1015,0 hPa 0,0 l/m 18,1 km/h (3 Bft) W 277 0 min 84 W/m 6,5 C 1,0 C 32,2 km/h (5 Bft)
20.03.2016 10:03 7,7 C 92 % 1015,0 hPa 0,0 l/m 21,2 km/h (4 Bft) NW 306 0 min 109 W/m 6,5 C -0,1 C 35,4 km/h (5 Bft)
20.03.2016 10:06 7,7 C 92 % 1015,0 hPa 0,0 l/m 17,1 km/h (3 Bft) W 271 0 min 181 W/m 6,5 C 1,4 C 33,8 km/h (5 Bft)
20.03.2016 10:09 7,8 C 92 % 1015,1 hPa 0,0 l/m 18,1 km/h (3 Bft) W 266 0 min 193 W/m 6,6 C 1,2 C 30,6 km/h (5 Bft)
20.03.2016 10:12 7,9 C 92 % 1015,1 hPa 0,0 l/m 17,6 km/h (3 Bft) W 267 0 min 134 W/m 6,7 C 1,5 C 29,0 km/h (5 Bft)
20.03.2016 10:15 8,0 C 91 % 1015,1 hPa 0,0 l/m 13,1 km/h (3 Bft) W 273 0 min 113 W/m 6,6 C 3,6 C 25,7 km/h (4 Bft)
20.03.2016 10:18 8,0 C 91 % 1015,1 hPa 0,0 l/m 10,1 km/h (2 Bft) W-NW 296 0 min 39 W/m 6,6 C 5,3 C 17,7 km/h (3 Bft)
20.03.2016 10:21 7,9 C 91 % 1015,1 hPa 0,0 l/m 12,4 km/h (2 Bft) W 271 0 min 77 W/m 6,5 C 3,9 C 25,7 km/h (4 Bft)
20.03.2016 10:24 7,8 C 91 % 1015,1 hPa 0,0 l/m 14,4 km/h (3 Bft) N-NO 21 0 min 167 W/m 6,4 C 2,7 C 27,4 km/h (5 Bft)
20.03.2016 10:27 7,9 C 91 % 1015,1 hPa 0,0 l/m 12,0 km/h (2 Bft) W-NW 292 0 min 63 W/m 6,5 C 4,1 C 22,5 km/h (4 Bft)
20.03.2016 10:30 7,8 C 91 % 1015,1 hPa 0,0 l/m 10,3 km/h (2 Bft) W-NW 294 0 min 77 W/m 6,4 C 5,0 C 19,3 km/h (3 Bft)
20.03.2016 10:33 7,8 C 91 % 1015,1 hPa 0,0 l/m 8,8 km/h (2 Bft) W 276 0 min 102 W/m 6,4 C 6,0 C 17,7 km/h (3 Bft)
20.03.2016 10:36 7,8 C 91 % 1015,1 hPa 0,0 l/m 11,9 km/h (2 Bft) W 279 0 min 79 W/m 6,4 C 4,0 C 25,7 km/h (4 Bft)
20.03.2016 10:39 7,8 C 91 % 1015,0 hPa 0,0 l/m 11,8 km/h (2 Bft) W-NW 292 0 min 35 W/m 6,4 C 4,1 C 20,9 km/h (4 Bft)
20.03.2016 10:42 7,7 C 91 % 1015,1 hPa 0,0 l/m 15,2 km/h (3 Bft) W 277 0 min 54 W/m 6,3 C 2,3 C 33,8 km/h (5 Bft)
20.03.2016 10:45 7,7 C 91 % 1015,1 hPa 0,0 l/m 15,4 km/h (3 Bft) W-NW 288 0 min 81 W/m 6,3 C 2,2 C 30,6 km/h (5 Bft)
20.03.2016 10:48 7,7 C 92 % 1015,2 hPa 0,0 l/m 14,9 km/h (3 Bft) W-NW 295 0 min 84 W/m 6,5 C 2,4 C 24,1 km/h (4 Bft)
20.03.2016 10:51 7,7 C 91 % 1015,1 hPa 0,0 l/m 18,9 km/h (3 Bft) SW 234 0 min 139 W/m 6,3 C 0,7 C 32,2 km/h (5 Bft)
20.03.2016 10:54 7,7 C 91 % 1015,2 hPa 0,0 l/m 14,0 km/h (3 Bft) W-SW 256 0 min 151 W/m 6,3 C 2,8 C 30,6 km/h (5 Bft)
20.03.2016 10:57 7,9 C 91 % 1015,2 hPa 0,0 l/m 14,6 km/h (3 Bft) NW 311 0 min 65 W/m 6,5 C 2,8 C 25,7 km/h (4 Bft)
20.03.2016 11:00 7,9 C 90 % 1015,2 hPa 0,0 l/m 11,3 km/h (2 Bft) N-NW 342 0 min 151 W/m 6,4 C 4,5 C 24,1 km/h (4 Bft)
20.03.2016 11:03 7,8 C 91 % 1015,2 hPa 0,0 l/m 10,3 km/h (2 Bft) NW 313 0 min 139 W/m 6,4 C 5,0 C 20,9 km/h (4 Bft)
20.03.2016 11:06 7,8 C 91 % 1015,2 hPa 0,0 l/m 12,1 km/h (2 Bft) N-NW 330 0 min 139 W/m 6,4 C 3,9 C 22,5 km/h (4 Bft)
20.03.2016 11:09 7,9 C 91 % 1015,2 hPa 0,0 l/m 13,3 km/h (3 Bft) W-NW 298 0 min 158 W/m 6,5 C 3,4 C 22,5 km/h (4 Bft)
20.03.2016 11:12 7,9 C 90 % 1015,1 hPa 0,0 l/m 10,6 km/h (2 Bft) W-NW 285 0 min 190 W/m 6,4 C 4,9 C 22,5 km/h (4 Bft)
20.03.2016 11:15 8,0 C 90 % 1015,2 hPa 0,0 l/m 11,7 km/h (2 Bft) N-NW 328 0 min 116 W/m 6,5 C 4,4 C 22,5 km/h (4 Bft)
20.03.2016 11:18 8,0 C 91 % 1015,2 hPa 0,0 l/m 7,7 km/h (2 Bft) N-NW 328 0 min 132 W/m 6,6 C 7,0 C 14,5 km/h (3 Bft)
20.03.2016 11:21 8,1 C 91 % 1015,1 hPa 0,0 l/m 9,7 km/h (2 Bft) W 262 0 min 216 W/m 6,7 C 5,7 C 20,9 km/h (4 Bft)
20.03.2016 11:24 8,2 C 90 % 1015,1 hPa 0,0 l/m 10,2 km/h (2 Bft) W 271 0 min 199 W/m 6,7 C 5,5 C 25,7 km/h (4 Bft)
20.03.2016 11:27 8,2 C 90 % 1015,2 hPa 0,0 l/m 10,2 km/h (2 Bft) N-NW 334 0 min 151 W/m 6,7 C 5,5 C 19,3 km/h (3 Bft)
20.03.2016 11:30 8,1 C 90 % 1015,1 hPa 0,0 l/m 12,2 km/h (2 Bft) NW 306 0 min 200 W/m 6,6 C 4,2 C 25,7 km/h (4 Bft)
20.03.2016 11:33 8,2 C 90 % 1015,1 hPa 0,0 l/m 10,0 km/h (2 Bft) NW 313 0 min 253 W/m 6,7 C 5,6 C 20,9 km/h (4 Bft)
20.03.2016 11:36 8,5 C 89 % 1015,2 hPa 0,0 l/m 15,0 km/h (3 Bft) N-NW 346 0 min 162 W/m 6,8 C 3,3 C 29,0 km/h (5 Bft)
20.03.2016 11:39 8,5 C 89 % 1015,1 hPa 0,0 l/m 10,2 km/h (2 Bft) W 265 0 min 155 W/m 6,8 C 5,8 C 20,9 km/h (4 Bft)
20.03.2016 11:42 8,7 C 88 % 1015,0 hPa 0,0 l/m 9,5 km/h (2 Bft) W-SW 257 0 min 213 W/m 6,8 C 6,5 C 19,3 km/h (3 Bft)
20.03.2016 11:45 8,6 C 88 % 1015,1 hPa 0,0 l/m 8,5 km/h (2 Bft) NW 310 0 min 193 W/m 6,7 C 7,0 C 16,1 km/h (3 Bft)
20.03.2016 11:48 8,7 C 88 % 1015,1 hPa 0,0 l/m 8,2 km/h (2 Bft) NW 304 0 min 236 W/m 6,8 C 7,3 C 20,9 km/h (4 Bft)
20.03.2016 11:51 8,8 C 88 % 1015,0 hPa 0,0 l/m 12,0 km/h (2 Bft) W-NW 299 0 min 246 W/m 6,9 C 5,1 C 25,7 km/h (4 Bft)
20.03.2016 11:54 8,8 C 87 % 1015,1 hPa 0,0 l/m 14,5 km/h (3 Bft) W 274 0 min 176 W/m 6,8 C 3,9 C 24,1 km/h (4 Bft)
20.03.2016 11:57 8,8 C 86 % 1015,0 hPa 0,0 l/m 11,5 km/h (2 Bft) W-NW 290 0 min 234 W/m 6,6 C 5,4 C 22,5 km/h (4 Bft)
20.03.2016 12:00 8,8 C 86 % 1015,1 hPa 0,0 l/m 9,0 km/h (2 Bft) W 273 0 min 195 W/m 6,6 C 6,9 C 20,9 km/h (4 Bft)
20.03.2016 12:03 8,8 C 86 % 1015,0 hPa 0,0 l/m 11,2 km/h (2 Bft) W-NW 288 0 min 163 W/m 6,6 C 5,6 C 22,5 km/h (4 Bft)
20.03.2016 12:06 8,8 C 86 % 1015,1 hPa 0,0 l/m 11,5 km/h (2 Bft) NW 317 0 min 176 W/m 6,6 C 5,4 C 27,4 km/h (5 Bft)
20.03.2016 12:09 8,8 C 85 % 1015,1 hPa 0,0 l/m 11,0 km/h (2 Bft) N 350 0 min 230 W/m 6,4 C 5,7 C 22,5 km/h (4 Bft)
20.03.2016 12:12 8,7 C 85 % 1015,1 hPa 0,0 l/m 12,9 km/h (3 Bft) W-NW 288 0 min 165 W/m 6,3 C 4,6 C 27,4 km/h (5 Bft)
20.03.2016 12:15 8,6 C 85 % 1015,1 hPa 0,0 l/m 12,0 km/h (2 Bft) NW 324 0 min 257 W/m 6,2 C 4,9 C 24,1 km/h (4 Bft)
20.03.2016 12:18 8,7 C 84 % 1015,1 hPa 0,0 l/m 15,4 km/h (3 Bft) NW 325 0 min 169 W/m 6,2 C 3,4 C 24,1 km/h (4 Bft)
20.03.2016 12:21 8,6 C 83 % 1015,1 hPa 0,0 l/m 12,7 km/h (3 Bft) N-NW 339 0 min 162 W/m 5,9 C 4,5 C 24,1 km/h (4 Bft)
20.03.2016 12:24 8,5 C 84 % 1015,1 hPa 0,0 l/m 13,7 km/h (3 Bft) W-NW 300 0 min 165 W/m 6,0 C 3,9 C 27,4 km/h (5 Bft)
20.03.2016 12:27 8,6 C 83 % 1015,1 hPa 0,0 l/m 13,6 km/h (3 Bft) NW 313 0 min 221 W/m 5,9 C 4,1 C 24,1 km/h (4 Bft)
20.03.2016 12:30 8,8 C 83 % 1015,1 hPa 0,0 l/m 10,7 km/h (2 Bft) N-NW 336 0 min 123 W/m 6,1 C 5,9 C 19,3 km/h (3 Bft)
20.03.2016 12:33 8,7 C 83 % 1015,1 hPa 0,0 l/m 13,2 km/h (3 Bft) N-NW 345 0 min 160 W/m 6,0 C 4,4 C 25,7 km/h (4 Bft)
20.03.2016 12:36 8,6 C 84 % 1015,1 hPa 0,0 l/m 10,4 km/h (2 Bft) W-NW 286 0 min 199 W/m 6,1 C 5,8 C 20,9 km/h (4 Bft)
20.03.2016 12:39 8,6 C 84 % 1014,9 hPa 0,0 l/m 10,5 km/h (2 Bft) N-NW 338 0 min 163 W/m 6,1 C 5,7 C 24,1 km/h (4 Bft)
20.03.2016 12:42 8,6 C 83 % 1014,9 hPa 0,0 l/m 13,9 km/h (3 Bft) W 275 0 min 197 W/m 5,9 C 3,9 C 22,5 km/h (4 Bft)
20.03.2016 12:45 8,5 C 83 % 1014,9 hPa 0,0 l/m 16,2 km/h (3 Bft) N-NW 329 0 min 202 W/m 5,8 C 2,8 C 25,7 km/h (4 Bft)
20.03.2016 12:48 8,5 C 82 % 1014,9 hPa 0,0 l/m 15,7 km/h (3 Bft) N-NW 344 0 min 165 W/m 5,6 C 3,0 C 29,0 km/h (5 Bft)
20.03.2016 12:51 8,4 C 83 % 1014,9 hPa 0,0 l/m 16,2 km/h (3 Bft) NW 311 0 min 142 W/m 5,7 C 2,7 C 24,1 km/h (4 Bft)
20.03.2016 12:54 8,3 C 82 % 1014,9 hPa 0,0 l/m 16,5 km/h (3 Bft) N-NW 345 0 min 142 W/m 5,4 C 2,4 C 30,6 km/h (5 Bft)
20.03.2016 12:57 8,3 C 82 % 1014,9 hPa 0,0 l/m 14,2 km/h (3 Bft) W-NW 302 0 min 135 W/m 5,4 C 3,4 C 24,1 km/h (4 Bft)
20.03.2016 13:00 8,3 C 82 % 1014,8 hPa 0,0 l/m 13,7 km/h (3 Bft) N 355 0 min 128 W/m 5,4 C 3,7 C 25,7 km/h (4 Bft)
20.03.2016 13:03 8,3 C 83 % 1014,9 hPa 0,0 l/m 13,7 km/h (3 Bft) N-NW 342 0 min 146 W/m 5,6 C 3,7 C 22,5 km/h (4 Bft)
20.03.2016 13:06 8,2 C 82 % 1014,8 hPa 0,0 l/m 17,8 km/h (3 Bft) N-NW 329 0 min 125 W/m 5,3 C 1,8 C 37,0 km/h (5 Bft)
20.03.2016 13:09 8,1 C 83 % 1014,8 hPa 0,0 l/m 12,1 km/h (2 Bft) W-NW 298 0 min 193 W/m 5,4 C 4,3 C 20,9 km/h (4 Bft)
20.03.2016 13:12 8,2 C 83 % 1014,9 hPa 0,0 l/m 17,1 km/h (3 Bft) NW 313 3 min 323 W/m 5,5 C 2,1 C 30,6 km/h (5 Bft)
20.03.2016 13:15 8,4 C 82 % 1014,8 hPa 0,0 l/m 14,8 km/h (3 Bft) N-NW 343 0 min 214 W/m 5,5 C 3,3 C 24,1 km/h (4 Bft)
20.03.2016 13:18 8,4 C 82 % 1014,8 hPa 0,0 l/m 14,6 km/h (3 Bft) SW 233 0 min 185 W/m 5,5 C 3,4 C 24,1 km/h (4 Bft)
20.03.2016 13:21 8,5 C 81 % 1014,8 hPa 0,0 l/m 13,3 km/h (3 Bft) NW 313 0 min 216 W/m 5,4 C 4,1 C 27,4 km/h (5 Bft)
20.03.2016 13:24 8,6 C 81 % 1014,8 hPa 0,0 l/m 12,9 km/h (3 Bft) NW 325 0 min 236 W/m 5,5 C 4,4 C 32,2 km/h (5 Bft)
20.03.2016 13:27 8,7 C 81 % 1014,7 hPa 0,0 l/m 14,5 km/h (3 Bft) NW 316 0 min 188 W/m 5,6 C 3,8 C 24,1 km/h (4 Bft)
20.03.2016 13:30 8,7 C 81 % 1014,7 hPa 0,0 l/m 12,6 km/h (3 Bft) NW 323 0 min 204 W/m 5,6 C 4,7 C 22,5 km/h (4 Bft)
20.03.2016 13:33 8,8 C 81 % 1014,7 hPa 0,0 l/m 11,1 km/h (2 Bft) W 268 0 min 257 W/m 5,7 C 5,6 C 20,9 km/h (4 Bft)
20.03.2016 13:36 8,8 C 80 % 1014,7 hPa 0,0 l/m 14,4 km/h (3 Bft) NW 315 0 min 241 W/m 5,5 C 4,0 C 24,1 km/h (4 Bft)
20.03.2016 13:39 8,9 C 79 % 1014,7 hPa 0,0 l/m 11,2 km/h (2 Bft) N-NO 15 0 min 179 W/m 5,5 C 5,7 C 22,5 km/h (4 Bft)
20.03.2016 13:42 8,8 C 80 % 1014,7 hPa 0,0 l/m 11,7 km/h (2 Bft) N-NO 13 0 min 237 W/m 5,5 C 5,3 C 20,9 km/h (4 Bft)
20.03.2016 13:45 8,9 C 79 % 1014,7 hPa 0,0 l/m 12,8 km/h (3 Bft) N-NW 331 0 min 285 W/m 5,5 C 4,8 C 25,7 km/h (4 Bft)
20.03.2016 13:48 9,1 C 79 % 1014,6 hPa 0,0 l/m 11,3 km/h (2 Bft) W-NW 293 3 min 483 W/m 5,7 C 5,9 C 20,9 km/h (4 Bft)
20.03.2016 13:51 9,4 C 79 % 1014,6 hPa 0,0 l/m 12,7 km/h (3 Bft) W-SW 254 3 min 413 W/m 5,9 C 5,5 C 22,5 km/h (4 Bft)
20.03.2016 13:54 9,7 C 77 % 1014,6 hPa 0,0 l/m 13,6 km/h (3 Bft) W-NW 303 0 min 281 W/m 5,9 C 5,4 C 24,1 km/h (4 Bft)
20.03.2016 13:57 9,7 C 77 % 1014,5 hPa 0,0 l/m 13,6 km/h (3 Bft) NW 317 3 min 401 W/m 5,9 C 5,4 C 24,1 km/h (4 Bft)
20.03.2016 14:00 10,2 C 76 % 1014,5 hPa 0,0 l/m 13,4 km/h (3 Bft) NW 323 3 min 515 W/m 6,2 C 6,1 C 24,1 km/h (4 Bft)
20.03.2016 14:03 10,3 C 77 % 1014,6 hPa 0,0 l/m 9,6 km/h (2 Bft) N-NW 327 3 min 399 W/m 6,4 C 8,2 C 16,1 km/h (3 Bft)
20.03.2016 14:06 10,7 C 76 % 1014,6 hPa 0,0 l/m 10,1 km/h (2 Bft) N 355 3 min 482 W/m 6,6 C 8,3 C 22,5 km/h (4 Bft)
20.03.2016 14:09 10,8 C 75 % 1014,6 hPa 0,0 l/m 11,2 km/h (2 Bft) NW 310 3 min 499 W/m 6,5 C 7,8 C 20,9 km/h (4 Bft)
20.03.2016 14:12 11,1 C 72 % 1014,5 hPa 0,0 l/m 15,7 km/h (3 Bft) N-NW 344 3 min 517 W/m 6,2 C 6,2 C 27,4 km/h (5 Bft)
20.03.2016 14:15 11,1 C 72 % 1014,6 hPa 0,0 l/m 12,9 km/h (3 Bft) N-NW 329 3 min 526 W/m 6,2 C 7,4 C 27,4 km/h (5 Bft)
20.03.2016 14:18 11,2 C 71 % 1014,5 hPa 0,0 l/m 14,3 km/h (3 Bft) S-SW 212 3 min 515 W/m 6,1 C 6,9 C 29,0 km/h (5 Bft)
20.03.2016 14:21 11,0 C 73 % 1014,5 hPa 0,0 l/m 13,2 km/h (3 Bft) N 5 3 min 527 W/m 6,4 C 7,1 C 27,4 km/h (5 Bft)
20.03.2016 14:24 10,9 C 72 % 1014,5 hPa 0,0 l/m 14,2 km/h (3 Bft) N-NO 16 3 min 492 W/m 6,1 C 6,6 C 29,0 km/h (5 Bft)
20.03.2016 14:27 11,0 C 73 % 1014,4 hPa 0,0 l/m 12,8 km/h (3 Bft) NW 313 3 min 504 W/m 6,4 C 7,3 C 22,5 km/h (4 Bft)
20.03.2016 14:30 11,3 C 72 % 1014,5 hPa 0,0 l/m 15,1 km/h (3 Bft) W 264 3 min 503 W/m 6,4 C 6,7 C 25,7 km/h (4 Bft)
20.03.2016 14:33 11,1 C 72 % 1014,5 hPa 0,0 l/m 12,0 km/h (2 Bft) W-NW 300 3 min 503 W/m 6,2 C 7,8 C 22,5 km/h (4 Bft)
20.03.2016 14:36 10,9 C 72 % 1014,5 hPa 0,0 l/m 11,7 km/h (2 Bft) NW 314 3 min 501 W/m 6,1 C 7,7 C 19,3 km/h (3 Bft)
20.03.2016 14:39 11,3 C 72 % 1014,5 hPa 0,0 l/m 13,5 km/h (3 Bft) W-NW 290 3 min 492 W/m 6,4 C 7,3 C 24,1 km/h (4 Bft)
20.03.2016 14:42 11,3 C 71 % 1014,5 hPa 0,0 l/m 13,3 km/h (3 Bft) W-NW 298 3 min 489 W/m 6,2 C 7,4 C 24,1 km/h (4 Bft)
20.03.2016 14:45 11,6 C 70 % 1014,4 hPa 0,0 l/m 11,4 km/h (2 Bft) W-SW 256 3 min 480 W/m 6,3 C 8,6 C 20,9 km/h (4 Bft)
20.03.2016 14:48 11,3 C 70 % 1014,5 hPa 0,0 l/m 14,0 km/h (3 Bft) NW 326 3 min 483 W/m 6,0 C 7,1 C 27,4 km/h (5 Bft)
20.03.2016 14:51 11,3 C 70 % 1014,5 hPa 0,0 l/m 14,8 km/h (3 Bft) NW 323 3 min 475 W/m 6,0 C 6,8 C 25,7 km/h (4 Bft)
20.03.2016 14:54 11,2 C 70 % 1014,5 hPa 0,0 l/m 14,7 km/h (3 Bft) W 281 3 min 471 W/m 5,9 C 6,7 C 24,1 km/h (4 Bft)
20.03.2016 14:57 11,2 C 71 % 1014,5 hPa 0,0 l/m 10,1 km/h (2 Bft) W-NW 296 3 min 403 W/m 6,1 C 8,9 C 24,1 km/h (4 Bft)
20.03.2016 15:00 11,5 C 70 % 1014,4 hPa 0,0 l/m 15,3 km/h (3 Bft) W-NW 293 3 min 464 W/m 6,2 C 6,8 C 24,1 km/h (4 Bft)
20.03.2016 15:03 11,4 C 69 % 1014,5 hPa 0,0 l/m 15,1 km/h (3 Bft) W-NW 284 3 min 457 W/m 5,9 C 6,8 C 27,4 km/h (5 Bft)
20.03.2016 15:06 11,3 C 70 % 1014,4 hPa 0,0 l/m 15,6 km/h (3 Bft) W-NW 298 3 min 452 W/m 6,0 C 6,5 C 25,7 km/h (4 Bft)
20.03.2016 15:09 11,3 C 70 % 1014,5 hPa 0,0 l/m 11,4 km/h (2 Bft) N-NW 342 3 min 441 W/m 6,0 C 8,3 C 22,5 km/h (4 Bft)
20.03.2016 15:12 11,1 C 70 % 1014,4 hPa 0,0 l/m 15,9 km/h (3 Bft) N 355 3 min 425 W/m 5,8 C 6,1 C 27,4 km/h (5 Bft)
20.03.2016 15:15 11,1 C 71 % 1014,4 hPa 0,0 l/m 15,3 km/h (3 Bft) W 262 3 min 436 W/m 6,0 C 6,3 C 25,7 km/h (4 Bft)
20.03.2016 15:18 10,8 C 72 % 1014,5 hPa 0,0 l/m 16,7 km/h (3 Bft) NW 305 3 min 427 W/m 6,0 C 5,4 C 29,0 km/h (5 Bft)
20.03.2016 15:21 10,9 C 71 % 1014,5 hPa 0,0 l/m 15,5 km/h (3 Bft) N 5 3 min 422 W/m 5,9 C 6,0 C 25,7 km/h (4 Bft)
20.03.2016 15:24 11,1 C 72 % 1014,5 hPa 0,0 l/m 13,5 km/h (3 Bft) W-NW 290 3 min 418 W/m 6,2 C 7,1 C 22,5 km/h (4 Bft)
20.03.2016 15:27 11,1 C 71 % 1014,5 hPa 0,0 l/m 17,2 km/h (3 Bft) N 5 3 min 410 W/m 6,0 C 5,6 C 27,4 km/h (5 Bft)
20.03.2016 15:30 10,9 C 71 % 1014,5 hPa 0,0 l/m 17,2 km/h (3 Bft) NW 308 3 min 410 W/m 5,9 C 5,4 C 29,0 km/h (5 Bft)
20.03.2016 15:33 11,1 C 71 % 1014,5 hPa 0,0 l/m 14,9 km/h (3 Bft) NW 309 3 min 404 W/m 6,0 C 6,5 C 29,0 km/h (5 Bft)
20.03.2016 15:36 10,8 C 71 % 1014,5 hPa 0,0 l/m 12,1 km/h (2 Bft) S 188 3 min 397 W/m 5,8 C 7,4 C 25,7 km/h (4 Bft)
20.03.2016 15:39 11,0 C 73 % 1014,5 hPa 0,0 l/m 13,3 km/h (3 Bft) NW 325 3 min 396 W/m 6,4 C 7,1 C 24,1 km/h (4 Bft)
20.03.2016 15:42 11,2 C 70 % 1014,5 hPa 0,0 l/m 18,1 km/h (3 Bft) W-NW 303 3 min 380 W/m 5,9 C 5,5 C 29,0 km/h (5 Bft)
20.03.2016 15:45 11,1 C 71 % 1014,5 hPa 0,0 l/m 10,7 km/h (2 Bft) N 360 3 min 380 W/m 6,0 C 8,4 C 22,5 km/h (4 Bft)
20.03.2016 15:48 11,0 C 71 % 1014,4 hPa 0,0 l/m 14,4 km/h (3 Bft) W-NW 292 3 min 371 W/m 5,9 C 6,6 C 24,1 km/h (4 Bft)
20.03.2016 15:51 10,8 C 72 % 1014,4 hPa 0,0 l/m 16,4 km/h (3 Bft) N-NO 12 3 min 367 W/m 6,0 C 5,6 C 25,7 km/h (4 Bft)
20.03.2016 15:54 10,7 C 72 % 1014,4 hPa 0,0 l/m 17,3 km/h (3 Bft) N-NO 24 3 min 357 W/m 5,9 C 5,1 C 30,6 km/h (5 Bft)
20.03.2016 15:57 10,6 C 72 % 1014,4 hPa 0,0 l/m 17,7 km/h (3 Bft) NW 310 3 min 352 W/m 5,8 C 4,8 C 32,2 km/h (5 Bft)
20.03.2016 16:00 10,2 C 73 % 1014,5 hPa 0,0 l/m 12,8 km/h (3 Bft) NW 311 3 min 345 W/m 5,6 C 6,4 C 27,4 km/h (5 Bft)
20.03.2016 16:03 10,6 C 73 % 1014,4 hPa 0,0 l/m 16,1 km/h (3 Bft) W 273 3 min 341 W/m 6,0 C 5,4 C 24,1 km/h (4 Bft)
20.03.2016 16:06 10,4 C 73 % 1014,4 hPa 0,0 l/m 14,0 km/h (3 Bft) W-NW 293 3 min 332 W/m 5,8 C 6,0 C 25,7 km/h (4 Bft)
20.03.2016 16:09 10,4 C 73 % 1014,4 hPa 0,0 l/m 15,2 km/h (3 Bft) N-NW 340 3 min 322 W/m 5,8 C 5,5 C 30,6 km/h (5 Bft)
20.03.2016 16:12 10,2 C 74 % 1014,3 hPa 0,0 l/m 15,6 km/h (3 Bft) NW 315 3 min 318 W/m 5,8 C 5,1 C 29,0 km/h (5 Bft)
20.03.2016 16:15 10,3 C 74 % 1014,3 hPa 0,0 l/m 15,6 km/h (3 Bft) W-NW 294 3 min 313 W/m 5,9 C 5,3 C 30,6 km/h (5 Bft)
20.03.2016 16:18 10,4 C 73 % 1014,4 hPa 0,0 l/m 14,7 km/h (3 Bft) N 5 3 min 302 W/m 5,8 C 5,7 C 24,1 km/h (4 Bft)
20.03.2016 16:21 10,3 C 74 % 1014,4 hPa 0,0 l/m 13,3 km/h (3 Bft) NW 320 3 min 301 W/m 5,9 C 6,2 C 24,1 km/h (4 Bft)
20.03.2016 16:24 10,3 C 74 % 1014,4 hPa 0,0 l/m 16,0 km/h (3 Bft) NW 317 3 min 290 W/m 5,9 C 5,1 C 29,0 km/h (5 Bft)
20.03.2016 16:27 10,2 C 73 % 1014,5 hPa 0,0 l/m 15,6 km/h (3 Bft) N-NW 327 3 min 287 W/m 5,6 C 5,1 C 30,6 km/h (5 Bft)
20.03.2016 16:30 9,9 C 74 % 1014,4 hPa 0,0 l/m 17,4 km/h (3 Bft) NW 321 3 min 278 W/m 5,5 C 4,1 C 29,0 km/h (5 Bft)
20.03.2016 16:33 9,9 C 75 % 1014,4 hPa 0,0 l/m 16,6 km/h (3 Bft) W-NW 282 3 min 269 W/m 5,7 C 4,4 C 30,6 km/h (5 Bft)
20.03.2016 16:36 9,9 C 75 % 1014,4 hPa 0,0 l/m 11,5 km/h (2 Bft) N 5 3 min 262 W/m 5,7 C 6,7 C 30,6 km/h (5 Bft)
20.03.2016 16:39 9,8 C 75 % 1014,3 hPa 0,0 l/m 17,0 km/h (3 Bft) NW 319 3 min 255 W/m 5,6 C 4,1 C 30,6 km/h (5 Bft)
20.03.2016 16:42 9,8 C 76 % 1014,3 hPa 0,0 l/m 13,9 km/h (3 Bft) NW 312 3 min 241 W/m 5,8 C 5,4 C 24,1 km/h (4 Bft)
20.03.2016 16:45 9,7 C 75 % 1014,3 hPa 0,0 l/m 15,0 km/h (3 Bft) NW 319 3 min 237 W/m 5,5 C 4,8 C 24,1 km/h (4 Bft)
20.03.2016 16:48 9,8 C 76 % 1014,3 hPa 0,0 l/m 14,2 km/h (3 Bft) N-NW 334 3 min 229 W/m 5,8 C 5,2 C 30,6 km/h (5 Bft)
20.03.2016 16:51 9,7 C 75 % 1014,3 hPa 0,0 l/m 14,1 km/h (3 Bft) NW 318 3 min 220 W/m 5,5 C 5,2 C 27,4 km/h (5 Bft)
20.03.2016 16:54 9,5 C 77 % 1014,3 hPa 0,0 l/m 17,5 km/h (3 Bft) N-NO 22 3 min 209 W/m 5,7 C 3,5 C 29,0 km/h (5 Bft)
20.03.2016 16:57 9,5 C 76 % 1014,2 hPa 0,0 l/m 16,6 km/h (3 Bft) N-NW 333 3 min 204 W/m 5,5 C 3,9 C 27,4 km/h (5 Bft)
20.03.2016 17:00 9,4 C 77 % 1014,2 hPa 0,0 l/m 15,7 km/h (3 Bft) W-SW 256 3 min 197 W/m 5,6 C 4,1 C 32,2 km/h (5 Bft)
20.03.2016 17:03 9,4 C 77 % 1014,2 hPa 0,0 l/m 15,1 km/h (3 Bft) NW 323 3 min 186 W/m 5,6 C 4,4 C 24,1 km/h (4 Bft)
20.03.2016 17:06 9,3 C 76 % 1014,2 hPa 0,0 l/m 15,7 km/h (3 Bft) W-SW 257 3 min 178 W/m 5,3 C 4,0 C 30,6 km/h (5 Bft)
20.03.2016 17:09 9,2 C 76 % 1014,3 hPa 0,0 l/m 16,0 km/h (3 Bft) SW 215 3 min 169 W/m 5,2 C 3,7 C 25,7 km/h (4 Bft)
20.03.2016 17:12 9,1 C 77 % 1014,3 hPa 0,0 l/m 16,9 km/h (3 Bft) NW 322 3 min 160 W/m 5,3 C 3,3 C 29,0 km/h (5 Bft)
20.03.2016 17:15 9,1 C 77 % 1014,3 hPa 0,0 l/m 13,9 km/h (3 Bft) NW 313 3 min 153 W/m 5,3 C 4,5 C 27,4 km/h (5 Bft)
20.03.2016 17:18 9,0 C 77 % 1014,4 hPa 0,0 l/m 13,9 km/h (3 Bft) NW 305 3 min 142 W/m 5,2 C 4,4 C 25,7 km/h (4 Bft)
20.03.2016 17:21 8,9 C 77 % 1014,3 hPa 0,0 l/m 13,9 km/h (3 Bft) S 187 3 min 135 W/m 5,1 C 4,3 C 24,1 km/h (4 Bft)
20.03.2016 17:24 8,9 C 78 % 1014,4 hPa 0,0 l/m 16,4 km/h (3 Bft) W 269 3 min 127 W/m 5,3 C 3,2 C 25,7 km/h (4 Bft)
20.03.2016 17:27 8,8 C 78 % 1014,4 hPa 0,0 l/m 13,8 km/h (3 Bft) W-NW 296 3 min 118 W/m 5,2 C 4,2 C 29,0 km/h (5 Bft)
20.03.2016 17:30 8,8 C 78 % 1014,4 hPa 0,0 l/m 13,3 km/h (3 Bft) N-NW 343 3 min 109 W/m 5,2 C 4,5 C 25,7 km/h (4 Bft)
20.03.2016 17:33 8,7 C 78 % 1014,4 hPa 0,0 l/m 15,7 km/h (3 Bft) W-NW 302 3 min 105 W/m 5,1 C 3,3 C 25,7 km/h (4 Bft)
20.03.2016 17:36 8,6 C 79 % 1014,3 hPa 0,0 l/m 13,2 km/h (3 Bft) NW 322 3 min 97 W/m 5,2 C 4,3 C 27,4 km/h (5 Bft)
20.03.2016 17:39 8,6 C 79 % 1014,4 hPa 0,0 l/m 11,8 km/h (2 Bft) W-SW 246 0 min 33 W/m 5,2 C 5,0 C 24,1 km/h (4 Bft)
20.03.2016 17:42 8,6 C 79 % 1014,4 hPa 0,0 l/m 9,8 km/h (2 Bft) W-NW 301 0 min 32 W/m 5,2 C 6,2 C 22,5 km/h (4 Bft)
20.03.2016 17:45 8,4 C 79 % 1014,4 hPa 0,0 l/m 11,3 km/h (2 Bft) W-NW 284 0 min 33 W/m 5,0 C 5,1 C 24,1 km/h (4 Bft)
20.03.2016 17:48 8,3 C 80 % 1014,4 hPa 0,0 l/m 13,2 km/h (3 Bft) W-NW 302 0 min 33 W/m 5,1 C 3,9 C 25,7 km/h (4 Bft)
20.03.2016 17:51 8,1 C 81 % 1014,5 hPa 0,0 l/m 12,6 km/h (3 Bft) N-NW 346 0 min 32 W/m 5,0 C 4,0 C 29,0 km/h (5 Bft)
20.03.2016 17:54 8,0 C 82 % 1014,5 hPa 0,0 l/m 10,8 km/h (2 Bft) W-NW 291 0 min 28 W/m 5,1 C 4,9 C 20,9 km/h (4 Bft)
20.03.2016 17:57 8,1 C 82 % 1014,5 hPa 0,0 l/m 10,5 km/h (2 Bft) W-NW 286 0 min 23 W/m 5,2 C 5,2 C 24,1 km/h (4 Bft)
20.03.2016 18:00 7,9 C 82 % 1014,5 hPa 0,0 l/m 12,6 km/h (3 Bft) NW 310 0 min 19 W/m 5,0 C 3,8 C 22,5 km/h (4 Bft)
20.03.2016 18:03 7,9 C 82 % 1014,4 hPa 0,0 l/m 9,8 km/h (2 Bft) N 355 0 min 14 W/m 5,0 C 5,4 C 20,9 km/h (4 Bft)
20.03.2016 18:06 7,8 C 83 % 1014,5 hPa 0,0 l/m 10,3 km/h (2 Bft) NW 315 0 min 14 W/m 5,1 C 5,0 C 20,9 km/h (4 Bft)
20.03.2016 18:09 7,8 C 83 % 1014,5 hPa 0,0 l/m 13,1 km/h (3 Bft) W 280 0 min 12 W/m 5,1 C 3,4 C 20,9 km/h (4 Bft)
20.03.2016 18:12 7,8 C 83 % 1014,5 hPa 0,0 l/m 11,2 km/h (2 Bft) NW 325 0 min 11 W/m 5,1 C 4,4 C 24,1 km/h (4 Bft)
20.03.2016 18:15 7,8 C 83 % 1014,5 hPa 0,0 l/m 11,1 km/h (2 Bft) NW 323 0 min 7 W/m 5,1 C 4,5 C 22,5 km/h (4 Bft)
20.03.2016 18:18 7,8 C 83 % 1014,6 hPa 0,0 l/m 14,6 km/h (3 Bft) N-NW 328 0 min 7 W/m 5,1 C 2,7 C 25,7 km/h (4 Bft)
20.03.2016 18:21 7,7 C 84 % 1014,5 hPa 0,0 l/m 9,0 km/h (2 Bft) W-NW 288 0 min 5 W/m 5,2 C 5,7 C 17,7 km/h (3 Bft)
20.03.2016 18:24 7,7 C 84 % 1014,5 hPa 0,0 l/m 10,6 km/h (2 Bft) NW 312 0 min 5 W/m 5,2 C 4,7 C 19,3 km/h (3 Bft)
20.03.2016 18:27 7,7 C 84 % 1014,5 hPa 0,0 l/m 12,1 km/h (2 Bft) N-NO 18 0 min 0 W/m 5,2 C 3,8 C 25,7 km/h (4 Bft)
20.03.2016 18:30 7,7 C 84 % 1014,5 hPa 0,0 l/m 9,7 km/h (2 Bft) NW 308 0 min 0 W/m 5,2 C 5,2 C 22,5 km/h (4 Bft)
20.03.2016 18:33 7,7 C 84 % 1014,5 hPa 0,0 l/m 10,9 km/h (2 Bft) W 281 0 min 0 W/m 5,2 C 4,5 C 22,5 km/h (4 Bft)
20.03.2016 18:36 7,6 C 84 % 1014,5 hPa 0,0 l/m 7,9 km/h (2 Bft) N 355 0 min 0 W/m 5,1 C 6,4 C 19,3 km/h (3 Bft)
20.03.2016 18:39 7,6 C 85 % 1014,5 hPa 0,0 l/m 6,3 km/h (2 Bft) NW 304 0 min 0 W/m 5,2 C 7,6 C 14,5 km/h (3 Bft)
20.03.2016 18:42 7,6 C 84 % 1014,5 hPa 0,0 l/m 7,8 km/h (2 Bft) N-NW 339 0 min 0 W/m 5,1 C 6,5 C 16,1 km/h (3 Bft)
20.03.2016 18:45 7,6 C 84 % 1014,6 hPa 0,0 l/m 10,6 km/h (2 Bft) W-NW 296 0 min 0 W/m 5,1 C 4,6 C 24,1 km/h (4 Bft)
20.03.2016 18:48 7,6 C 85 % 1014,5 hPa 0,0 l/m 7,1 km/h (2 Bft) N-NW 327 0 min 0 W/m 5,2 C 7,0 C 14,5 km/h (3 Bft)
20.03.2016 18:51 7,5 C 85 % 1014,5 hPa 0,0 l/m 7,3 km/h (2 Bft) W-NW 290 0 min 0 W/m 5,1 C 6,8 C 20,9 km/h (4 Bft)
20.03.2016 18:54 7,5 C 85 % 1014,6 hPa 0,0 l/m 7,7 km/h (2 Bft) W-NW 297 0 min 0 W/m 5,1 C 6,5 C 16,1 km/h (3 Bft)
20.03.2016 18:57 7,5 C 85 % 1014,5 hPa 0,0 l/m 8,2 km/h (2 Bft) W-NW 288 0 min 0 W/m 5,1 C 6,1 C 16,1 km/h (3 Bft)
20.03.2016 19:00 7,4 C 85 % 1014,5 hPa 0,0 l/m 5,9 km/h (2 Bft) NW 304 0 min 0 W/m 5,0 C 7,4 C 17,7 km/h (3 Bft)
20.03.2016 19:03 7,4 C 85 % 1014,5 hPa 0,0 l/m 4,1 km/h (1 Bft) W 273 0 min 0 W/m 5,0 C 7,4 C 12,9 km/h (3 Bft)
20.03.2016 19:06 7,4 C 86 % 1014,5 hPa 0,0 l/m 10,0 km/h (2 Bft) NW 308 0 min 0 W/m 5,2 C 4,7 C 20,9 km/h (4 Bft)
20.03.2016 19:09 7,4 C 86 % 1014,6 hPa 0,0 l/m 9,6 km/h (2 Bft) NW 311 0 min 0 W/m 5,2 C 5,0 C 16,1 km/h (3 Bft)
20.03.2016 19:12 7,4 C 85 % 1014,6 hPa 0,0 l/m 9,4 km/h (2 Bft) NW 306 0 min 0 W/m 5,0 C 5,1 C 19,3 km/h (3 Bft)
20.03.2016 19:15 7,4 C 85 % 1014,5 hPa 0,0 l/m 11,4 km/h (2 Bft) NW 321 0 min 0 W/m 5,0 C 3,9 C 19,3 km/h (3 Bft)
20.03.2016 19:18 7,3 C 86 % 1014,6 hPa 0,0 l/m 8,1 km/h (2 Bft) W-NW 285 0 min 0 W/m 5,1 C 5,9 C 24,1 km/h (4 Bft)
20.03.2016 19:21 7,3 C 86 % 1014,7 hPa 0,0 l/m 14,0 km/h (3 Bft) W 269 0 min 0 W/m 5,1 C 2,3 C 22,5 km/h (4 Bft)
20.03.2016 19:24 7,4 C 86 % 1014,6 hPa 0,0 l/m 9,8 km/h (2 Bft) W 272 0 min 0 W/m 5,2 C 4,9 C 16,1 km/h (3 Bft)
20.03.2016 19:27 7,4 C 86 % 1014,6 hPa 0,0 l/m 12,1 km/h (2 Bft) NW 310 0 min 0 W/m 5,2 C 3,5 C 19,3 km/h (3 Bft)
20.03.2016 19:30 7,4 C 87 % 1014,6 hPa 0,0 l/m 10,5 km/h (2 Bft) W-NW 300 0 min 0 W/m 5,4 C 4,4 C 24,1 km/h (4 Bft)
20.03.2016 19:33 7,3 C 87 % 1014,7 hPa 0,0 l/m 10,9 km/h (2 Bft) W-SW 258 0 min 0 W/m 5,3 C 4,0 C 24,1 km/h (4 Bft)
20.03.2016 19:36 7,3 C 87 % 1014,6 hPa 0,0 l/m 11,3 km/h (2 Bft) W 279 0 min 0 W/m 5,3 C 3,8 C 19,3 km/h (3 Bft)
20.03.2016 19:39 7,4 C 87 % 1014,6 hPa 0,0 l/m 11,1 km/h (2 Bft) W 270 0 min 0 W/m 5,4 C 4,0 C 20,9 km/h (4 Bft)
20.03.2016 19:42 7,4 C 87 % 1014,6 hPa 0,0 l/m 12,5 km/h (2 Bft) SW 223 0 min 0 W/m 5,4 C 3,2 C 24,1 km/h (4 Bft)
20.03.2016 19:45 7,3 C 87 % 1014,6 hPa 0,0 l/m 13,7 km/h (3 Bft) W-SW 247 0 min 0 W/m 5,3 C 2,5 C 20,9 km/h (4 Bft)
20.03.2016 19:48 7,3 C 87 % 1014,6 hPa 0,0 l/m 10,9 km/h (2 Bft) W 279 0 min 0 W/m 5,3 C 4,0 C 25,7 km/h (4 Bft)
20.03.2016 19:51 7,3 C 88 % 1014,6 hPa 0,0 l/m 12,1 km/h (2 Bft) W 281 0 min 0 W/m 5,4 C 3,3 C 19,3 km/h (3 Bft)
20.03.2016 19:54 7,3 C 88 % 1014,6 hPa 0,0 l/m 12,4 km/h (2 Bft) W-NW 287 0 min 0 W/m 5,4 C 3,2 C 20,9 km/h (4 Bft)
20.03.2016 19:57 7,3 C 88 % 1014,6 hPa 0,0 l/m 8,6 km/h (2 Bft) W 275 0 min 0 W/m 5,4 C 5,6 C 17,7 km/h (3 Bft)
20.03.2016 20:00 7,3 C 89 % 1014,6 hPa 0,0 l/m 13,4 km/h (3 Bft) N-NW 348 0 min 0 W/m 5,6 C 2,7 C 25,7 km/h (4 Bft)
20.03.2016 20:03 7,3 C 89 % 1014,6 hPa 0,0 l/m 11,1 km/h (2 Bft) N 5 0 min 0 W/m 5,6 C 3,9 C 20,9 km/h (4 Bft)
20.03.2016 20:06 7,3 C 89 % 1014,5 hPa 0,0 l/m 9,0 km/h (2 Bft) NW 315 0 min 0 W/m 5,6 C 5,3 C 20,9 km/h (4 Bft)
20.03.2016 20:09 7,4 C 89 % 1014,6 hPa 0,0 l/m 10,9 km/h (2 Bft) W 271 0 min 0 W/m 5,7 C 4,2 C 19,3 km/h (3 Bft)
20.03.2016 20:12 7,4 C 89 % 1014,6 hPa 0,0 l/m 9,8 km/h (2 Bft) W 273 0 min 0 W/m 5,7 C 4,9 C 20,9 km/h (4 Bft)
20.03.2016 20:15 7,3 C 89 % 1014,6 hPa 0,0 l/m 13,3 km/h (3 Bft) W-NW 285 0 min 0 W/m 5,6 C 2,7 C 25,7 km/h (4 Bft)
20.03.2016 20:18 7,3 C 90 % 1014,6 hPa 0,0 l/m 10,0 km/h (2 Bft) W-NW 292 0 min 0 W/m 5,8 C 4,6 C 17,7 km/h (3 Bft)
20.03.2016 20:21 7,3 C 90 % 1014,7 hPa 0,0 l/m 12,4 km/h (2 Bft) W 262 0 min 0 W/m 5,8 C 3,2 C 22,5 km/h (4 Bft)
20.03.2016 20:24 7,4 C 90 % 1014,7 hPa 0,0 l/m 12,2 km/h (2 Bft) SW 236 0 min 0 W/m 5,9 C 3,4 C 20,9 km/h (4 Bft)
20.03.2016 20:27 7,4 C 90 % 1014,6 hPa 0,0 l/m 11,9 km/h (2 Bft) W 261 0 min 0 W/m 5,9 C 3,6 C 20,9 km/h (4 Bft)
20.03.2016 20:30 7,4 C 90 % 1014,7 hPa 0,0 l/m 8,2 km/h (2 Bft) NW 304 0 min 0 W/m 5,9 C 6,0 C 17,7 km/h (3 Bft)
20.03.2016 20:33 7,4 C 90 % 1014,6 hPa 0,0 l/m 12,8 km/h (3 Bft) W-NW 282 0 min 0 W/m 5,9 C 3,1 C 24,1 km/h (4 Bft)
20.03.2016 20:36 7,4 C 91 % 1014,6 hPa 0,0 l/m 14,2 km/h (3 Bft) W-SW 255 0 min 0 W/m 6,0 C 2,4 C 24,1 km/h (4 Bft)
20.03.2016 20:39 7,4 C 91 % 1014,6 hPa 0,0 l/m 12,7 km/h (3 Bft) W-NW 298 0 min 0 W/m 6,0 C 3,1 C 20,9 km/h (4 Bft)
20.03.2016 20:42 7,4 C 91 % 1014,6 hPa 0,0 l/m 12,5 km/h (2 Bft) W 266 0 min 0 W/m 6,0 C 3,2 C 27,4 km/h (5 Bft)
20.03.2016 20:45 7,4 C 91 % 1014,6 hPa 0,0 l/m 11,4 km/h (2 Bft) NW 311 0 min 0 W/m 6,0 C 3,9 C 20,9 km/h (4 Bft)
20.03.2016 20:48 7,4 C 91 % 1014,7 hPa 0,0 l/m 10,8 km/h (2 Bft) W-NW 289 0 min 0 W/m 6,0 C 4,2 C 19,3 km/h (3 Bft)
20.03.2016 20:51 7,4 C 92 % 1014,7 hPa 0,0 l/m 8,3 km/h (2 Bft) W-NW 296 0 min 0 W/m 6,2 C 5,9 C 22,5 km/h (4 Bft)
20.03.2016 20:54 7,4 C 92 % 1014,7 hPa 0,0 l/m 8,8 km/h (2 Bft) W-NW 298 0 min 0 W/m 6,2 C 5,5 C 20,9 km/h (4 Bft)
20.03.2016 20:57 7,3 C 92 % 1014,6 hPa 0,0 l/m 8,0 km/h (2 Bft) W 266 0 min 0 W/m 6,1 C 6,0 C 19,3 km/h (3 Bft)
20.03.2016 21:00 7,3 C 92 % 1014,6 hPa 0,0 l/m 9,2 km/h (2 Bft) NW 306 0 min 0 W/m 6,1 C 5,1 C 19,3 km/h (3 Bft)
20.03.2016 21:03 7,3 C 92 % 1014,7 hPa 0,0 l/m 8,5 km/h (2 Bft) W-NW 296 0 min 0 W/m 6,1 C 5,6 C 20,9 km/h (4 Bft)
20.03.2016 21:06 7,2 C 92 % 1014,6 hPa 0,0 l/m 10,2 km/h (2 Bft) NW 309 0 min 0 W/m 6,0 C 4,4 C 24,1 km/h (4 Bft)
20.03.2016 21:09 7,2 C 92 % 1014,7 hPa 0,0 l/m 11,9 km/h (2 Bft) W 274 0 min 0 W/m 6,0 C 3,3 C 20,9 km/h (4 Bft)
20.03.2016 21:12 7,2 C 92 % 1014,8 hPa 0,0 l/m 14,9 km/h (3 Bft) NW 319 0 min 0 W/m 6,0 C 1,8 C 27,4 km/h (5 Bft)
20.03.2016 21:15 7,1 C 91 % 1014,8 hPa 0,0 l/m 17,1 km/h (3 Bft) NW 324 0 min 0 W/m 5,7 C 0,7 C 25,7 km/h (4 Bft)
20.03.2016 21:18 7,1 C 91 % 1014,8 hPa 0,0 l/m 18,4 km/h (3 Bft) N-NW 334 0 min 0 W/m 5,7 C 0,1 C 29,0 km/h (5 Bft)
20.03.2016 21:21 7,1 C 91 % 1014,8 hPa 0,0 l/m 16,7 km/h (3 Bft) N 355 0 min 0 W/m 5,7 C 0,9 C 25,7 km/h (4 Bft)
20.03.2016 21:24 7,2 C 91 % 1014,8 hPa 0,0 l/m 9,8 km/h (2 Bft) N-NW 330 0 min 0 W/m 5,8 C 4,6 C 16,1 km/h (3 Bft)
20.03.2016 21:27 7,2 C 90 % 1014,7 hPa 0,0 l/m 10,4 km/h (2 Bft) W 262 0 min 0 W/m 5,7 C 4,2 C 22,5 km/h (4 Bft)
20.03.2016 21:30 7,2 C 90 % 1014,7 hPa 0,0 l/m 13,7 km/h (3 Bft) W 277 0 min 0 W/m 5,7 C 2,4 C 20,9 km/h (4 Bft)
20.03.2016 21:33 7,2 C 90 % 1014,7 hPa 0,0 l/m 14,2 km/h (3 Bft) N-NW 336 0 min 0 W/m 5,7 C 2,1 C 24,1 km/h (4 Bft)
20.03.2016 21:36 7,2 C 90 % 1014,6 hPa 0,0 l/m 12,2 km/h (2 Bft) N-NW 340 0 min 0 W/m 5,7 C 3,2 C 20,9 km/h (4 Bft)
20.03.2016 21:39 7,2 C 90 % 1014,6 hPa 0,0 l/m 11,5 km/h (2 Bft) NW 316 0 min 0 W/m 5,7 C 3,6 C 22,5 km/h (4 Bft)
20.03.2016 21:42 7,1 C 90 % 1014,6 hPa 0,0 l/m 9,4 km/h (2 Bft) W-NW 303 0 min 0 W/m 5,6 C 4,8 C 22,5 km/h (4 Bft)
20.03.2016 21:45 7,1 C 90 % 1014,6 hPa 0,0 l/m 11,2 km/h (2 Bft) NW 314 0 min 0 W/m 5,6 C 3,6 C 17,7 km/h (3 Bft)
20.03.2016 21:48 7,1 C 90 % 1014,6 hPa 0,0 l/m 8,2 km/h (2 Bft) W-NW 300 0 min 0 W/m 5,6 C 5,7 C 17,7 km/h (3 Bft)
20.03.2016 21:51 7,0 C 90 % 1014,7 hPa 0,0 l/m 12,6 km/h (3 Bft) N 350 0 min 0 W/m 5,5 C 2,7 C 24,1 km/h (4 Bft)
20.03.2016 21:54 7,0 C 90 % 1014,7 hPa 0,0 l/m 12,6 km/h (3 Bft) N 355 0 min 0 W/m 5,5 C 2,7 C 20,9 km/h (4 Bft)
20.03.2016 21:57 7,0 C 90 % 1014,6 hPa 0,0 l/m 11,7 km/h (2 Bft) NW 304 0 min 0 W/m 5,5 C 3,2 C 20,9 km/h (4 Bft)
20.03.2016 22:00 7,0 C 90 % 1014,7 hPa 0,0 l/m 10,6 km/h (2 Bft) NW 306 0 min 0 W/m 5,5 C 3,9 C 20,9 km/h (4 Bft)
20.03.2016 22:03 6,9 C 90 % 1014,7 hPa 0,0 l/m 7,5 km/h (2 Bft) W-NW 294 0 min 0 W/m 5,4 C 6,0 C 16,1 km/h (3 Bft)
20.03.2016 22:06 6,9 C 90 % 1014,7 hPa 0,0 l/m 8,9 km/h (2 Bft) N-NW 330 0 min 0 W/m 5,4 C 4,9 C 19,3 km/h (3 Bft)
20.03.2016 22:09 6,9 C 90 % 1014,7 hPa 0,0 l/m 6,3 km/h (2 Bft) N-NW 346 0 min 0 W/m 5,4 C 6,9 C 14,5 km/h (3 Bft)
20.03.2016 22:12 6,9 C 90 % 1014,6 hPa 0,0 l/m 6,4 km/h (2 Bft) W-NW 284 0 min 0 W/m 5,4 C 6,9 C 16,1 km/h (3 Bft)
20.03.2016 22:15 6,9 C 90 % 1014,6 hPa 0,0 l/m 7,9 km/h (2 Bft) NW 309 0 min 0 W/m 5,4 C 5,7 C 16,1 km/h (3 Bft)
20.03.2016 22:18 6,8 C 90 % 1014,5 hPa 0,0 l/m 10,5 km/h (2 Bft) W-NW 286 0 min 0 W/m 5,3 C 3,7 C 19,3 km/h (3 Bft)
20.03.2016 22:21 6,8 C 91 % 1014,6 hPa 0,0 l/m 9,6 km/h (2 Bft) W-NW 284 0 min 0 W/m 5,4 C 4,3 C 19,3 km/h (3 Bft)
20.03.2016 22:24 6,8 C 91 % 1014,6 hPa 0,0 l/m 10,4 km/h (2 Bft) NW 306 0 min 0 W/m 5,4 C 3,8 C 22,5 km/h (4 Bft)
20.03.2016 22:27 6,7 C 91 % 1014,6 hPa 0,0 l/m 9,5 km/h (2 Bft) NW 309 0 min 0 W/m 5,3 C 4,3 C 22,5 km/h (4 Bft)
20.03.2016 22:30 6,7 C 91 % 1014,7 hPa 0,0 l/m 9,3 km/h (2 Bft) SW 236 0 min 0 W/m 5,3 C 4,4 C 19,3 km/h (3 Bft)
20.03.2016 22:33 6,7 C 91 % 1014,6 hPa 0,0 l/m 9,3 km/h (2 Bft) NW 313 0 min 0 W/m 5,3 C 4,4 C 17,7 km/h (3 Bft)
20.03.2016 22:36 6,8 C 91 % 1014,6 hPa 0,0 l/m 9,1 km/h (2 Bft) W-NW 291 0 min 0 W/m 5,4 C 4,7 C 17,7 km/h (3 Bft)
20.03.2016 22:39 6,7 C 91 % 1014,5 hPa 0,0 l/m 8,3 km/h (2 Bft) W 279 0 min 0 W/m 5,3 C 5,2 C 17,7 km/h (3 Bft)
20.03.2016 22:42 6,7 C 91 % 1014,5 hPa 0,0 l/m 8,4 km/h (2 Bft) W-SW 257 0 min 0 W/m 5,3 C 5,1 C 16,1 km/h (3 Bft)
20.03.2016 22:45 6,7 C 92 % 1014,5 hPa 0,0 l/m 11,3 km/h (2 Bft) W 274 0 min 0 W/m 5,5 C 3,1 C 19,3 km/h (3 Bft)
20.03.2016 22:48 6,7 C 92 % 1014,5 hPa 0,0 l/m 12,5 km/h (2 Bft) W 269 0 min 0 W/m 5,5 C 2,4 C 19,3 km/h (3 Bft)
20.03.2016 22:51 6,7 C 92 % 1014,5 hPa 0,0 l/m 9,1 km/h (2 Bft) NW 325 0 min 0 W/m 5,5 C 4,6 C 16,1 km/h (3 Bft)
20.03.2016 22:54 6,7 C 92 % 1014,4 hPa 0,0 l/m 11,1 km/h (2 Bft) W 266 0 min 0 W/m 5,5 C 3,2 C 17,7 km/h (3 Bft)
20.03.2016 22:57 6,7 C 92 % 1014,5 hPa 0,0 l/m 10,1 km/h (2 Bft) W-SW 255 0 min 0 W/m 5,5 C 3,9 C 19,3 km/h (3 Bft)
20.03.2016 23:00 6,8 C 92 % 1014,4 hPa 0,0 l/m 8,9 km/h (2 Bft) W 275 0 min 0 W/m 5,6 C 4,8 C 16,1 km/h (3 Bft)
20.03.2016 23:03 6,8 C 92 % 1014,4 hPa 0,0 l/m 10,0 km/h (2 Bft) W-NW 288 0 min 0 W/m 5,6 C 4,1 C 19,3 km/h (3 Bft)
20.03.2016 23:06 6,8 C 92 % 1014,4 hPa 0,0 l/m 11,8 km/h (2 Bft) SW 235 0 min 0 W/m 5,6 C 2,9 C 20,9 km/h (4 Bft)
20.03.2016 23:09 6,8 C 92 % 1014,5 hPa 0,0 l/m 13,1 km/h (3 Bft) W 275 0 min 0 W/m 5,6 C 2,2 C 22,5 km/h (4 Bft)
20.03.2016 23:12 6,8 C 92 % 1014,5 hPa 0,0 l/m 10,4 km/h (2 Bft) NW 313 0 min 0 W/m 5,6 C 3,8 C 20,9 km/h (4 Bft)
20.03.2016 23:15 6,8 C 92 % 1014,4 hPa 0,0 l/m 11,3 km/h (2 Bft) W-SW 258 0 min 0 W/m 5,6 C 3,2 C 24,1 km/h (4 Bft)
20.03.2016 23:18 6,8 C 92 % 1014,4 hPa 0,0 l/m 11,5 km/h (2 Bft) SW 219 0 min 0 W/m 5,6 C 3,1 C 24,1 km/h (4 Bft)
20.03.2016 23:21 6,8 C 92 % 1014,5 hPa 0,0 l/m 11,2 km/h (2 Bft) W-NW 295 0 min 0 W/m 5,6 C 3,3 C 19,3 km/h (3 Bft)
20.03.2016 23:24 6,9 C 92 % 1014,5 hPa 0,0 l/m 9,6 km/h (2 Bft) W-NW 286 0 min 0 W/m 5,7 C 4,4 C 17,7 km/h (3 Bft)
20.03.2016 23:27 6,9 C 92 % 1014,5 hPa 0,0 l/m 7,1 km/h (2 Bft) W 281 0 min 0 W/m 5,7 C 6,3 C 14,5 km/h (3 Bft)
20.03.2016 23:30 6,9 C 92 % 1014,4 hPa 0,0 l/m 9,8 km/h (2 Bft) W-NW 289 0 min 0 W/m 5,7 C 4,3 C 24,1 km/h (4 Bft)
20.03.2016 23:33 6,9 C 92 % 1014,4 hPa 0,0 l/m 12,9 km/h (3 Bft) NW 311 0 min 0 W/m 5,7 C 2,4 C 20,9 km/h (4 Bft)
20.03.2016 23:36 6,9 C 93 % 1014,3 hPa 0,0 l/m 9,0 km/h (2 Bft) NW 315 0 min 0 W/m 5,8 C 4,9 C 20,9 km/h (4 Bft)
20.03.2016 23:39 6,9 C 92 % 1014,3 hPa 0,0 l/m 8,1 km/h (2 Bft) W-NW 282 0 min 0 W/m 5,7 C 5,5 C 12,9 km/h (3 Bft)
20.03.2016 23:42 6,9 C 93 % 1014,4 hPa 0,0 l/m 10,5 km/h (2 Bft) S-SW 202 0 min 0 W/m 5,8 C 3,8 C 20,9 km/h (4 Bft)
20.03.2016 23:45 6,9 C 93 % 1014,4 hPa 0,0 l/m 8,1 km/h (2 Bft) N-NW 336 0 min 0 W/m 5,8 C 5,5 C 14,5 km/h (3 Bft)
20.03.2016 23:48 6,9 C 93 % 1014,4 hPa 0,0 l/m 11,9 km/h (2 Bft) W 269 0 min 0 W/m 5,8 C 3,0 C 17,7 km/h (3 Bft)
20.03.2016 23:51 6,9 C 93 % 1014,4 hPa 0,0 l/m 9,2 km/h (2 Bft) W-SW 248 0 min 0 W/m 5,8 C 4,7 C 16,1 km/h (3 Bft)
20.03.2016 23:54 6,9 C 93 % 1014,3 hPa 0,0 l/m 7,9 km/h (2 Bft) W-NW 291 0 min 0 W/m 5,8 C 5,7 C 16,1 km/h (3 Bft)
20.03.2016 23:57 6,9 C 93 % 1014,3 hPa 0,0 l/m 8,6 km/h (2 Bft) NW 319 0 min 0 W/m 5,8 C 5,1 C 14,5 km/h (3 Bft)
_ Min-Zeit 02:00 15:03 16:57 - 19:03 - - - - 03:42 06:54 01:42
Minimum _ 5,2 C 69 % 1014,2 hPa - 4,1 km/h (1 Bft) - - - - 3,7 C -1,1 C 12,9 km/h (3 Bft)
_ Max-Zeit 14:45 00:51 00:00 01:03 10:03 - - 13:12 14:21 11:51 14:57 09:54
Maximum _ 11,6 C 95 % 1017,8 hPa 0,2 l/m 21,2 km/h
NW (4 Bft)
- - 3 min 527 W/m 6,9 C 8,9 C 38,6 km/h
W (6 Bft)
Durchschnitt _ 7,4 C 87 % 1015,2 hPa #0,2 l/m 12,5 km/h (2 Bft) W - #3:51 h 184 W/m 5,3 C 3,4 C 23,5 km/h (4 Bft)
2016 Cux-Wetter.de -Die Nutzung der Wetterdaten nur mit ausdrcklicher Genehmigung